FWI40J LFPO-TFFR
Flight info
| Callsign | FWI40J |
|---|---|
| Flight time | 8h 10m |
| Altitude | 36000 |
| Route | LGL UN491 OTOFE DCT LARLA DCT RATKA/M085F360 DCT SOMAX DCT 49N020W/M085F380 45N030W 39N040W 35N045W 30N050W 25N055W/M085F400 DCT BNJEE/N0487F400 DCT BOSET BOSET1L |
| Aircraft | A35K/H-SABDE1E2E3GHIJ1J2J3J4J5M1P2RWXYZ/LB1D1 |
Departure
| Time | 2026-04-22 09:04 |
|---|---|
| Airport | Paris-Orly Airport (LFPO) |
Arrival
| Time | 2026-04-22 17:15 |
|---|---|
| Airport | Maryse Condé International Airport (TFFR) |
| Time | Latitude | Longitude | Altitude | Speed | Heading |
|---|---|---|---|---|---|
| 2026-04-22 08:32 | 48.72856 | 2.37558 | 313 ft | 0 kts | 343° |
| 2026-04-22 08:52 | 48.72855 | 2.37558 | 309 ft | 4 kts | 343° |
| 2026-04-22 08:52 | 48.72828 | 2.37570 | 312 ft | 4 kts | 343° |
| 2026-04-22 08:52 | 48.72804 | 2.37581 | 309 ft | 4 kts | 336° |
| 2026-04-22 08:53 | 48.72788 | 2.37595 | 312 ft | 4 kts | 299° |
| 2026-04-22 08:53 | 48.72782 | 2.37620 | 310 ft | 4 kts | 260° |
| 2026-04-22 08:53 | 48.72787 | 2.37650 | 310 ft | 4 kts | 254° |
| 2026-04-22 08:53 | 48.72792 | 2.37677 | 311 ft | 1 kts | 255° |
| 2026-04-22 08:54 | 48.72789 | 2.37661 | 310 ft | 0 kts | 255° |
| 2026-04-22 08:56 | 48.72788 | 2.37657 | 310 ft | 1 kts | 255° |
| 2026-04-22 08:56 | 48.72784 | 2.37633 | 311 ft | 4 kts | 255° |
| 2026-04-22 08:56 | 48.72775 | 2.37586 | 310 ft | 6 kts | 254° |
| 2026-04-22 08:57 | 48.72761 | 2.37514 | 312 ft | 8 kts | 254° |
| 2026-04-22 08:57 | 48.72744 | 2.37418 | 311 ft | 11 kts | 256° |
| 2026-04-22 08:57 | 48.72722 | 2.37297 | 310 ft | 13 kts | 254° |
| 2026-04-22 08:57 | 48.72706 | 2.37215 | 311 ft | 6 kts | 253° |
| 2026-04-22 08:58 | 48.72674 | 2.37178 | 310 ft | 7 kts | 184° |
| 2026-04-22 08:58 | 48.72630 | 2.37189 | 311 ft | 5 kts | 168° |
| 2026-04-22 08:58 | 48.72611 | 2.37184 | 310 ft | 1 kts | 201° |
| 2026-04-22 08:58 | 48.72600 | 2.37168 | 311 ft | 5 kts | 227° |
| 2026-04-22 08:59 | 48.72579 | 2.37079 | 311 ft | 13 kts | 254° |
| 2026-04-22 08:59 | 48.72547 | 2.36913 | 312 ft | 20 kts | 254° |
| 2026-04-22 08:59 | 48.72508 | 2.36699 | 310 ft | 22 kts | 254° |
| 2026-04-22 08:59 | 48.72470 | 2.36497 | 310 ft | 20 kts | 255° |
| 2026-04-22 09:00 | 48.72433 | 2.36288 | 310 ft | 22 kts | 255° |
| 2026-04-22 09:00 | 48.72405 | 2.36139 | 310 ft | 21 kts | 254° |
| 2026-04-22 09:00 | 48.72360 | 2.35895 | 310 ft | 14 kts | 255° |
| 2026-04-22 09:00 | 48.72333 | 2.35745 | 309 ft | 15 kts | 255° |
| 2026-04-22 09:01 | 48.72300 | 2.35628 | 309 ft | 12 kts | 225° |
| 2026-04-22 09:01 | 48.72213 | 2.35609 | 308 ft | 12 kts | 170° |
| 2026-04-22 09:01 | 48.72166 | 2.35626 | 308 ft | 9 kts | 166° |
| 2026-04-22 09:01 | 48.72106 | 2.35654 | 312 ft | 9 kts | 158° |
| 2026-04-22 09:02 | 48.72060 | 2.35700 | 312 ft | 7 kts | 137° |
| 2026-04-22 09:02 | 48.72031 | 2.35754 | 311 ft | 6 kts | 125° |
| 2026-04-22 09:02 | 48.72008 | 2.35809 | 312 ft | 6 kts | 120° |
| 2026-04-22 09:02 | 48.71985 | 2.35862 | 313 ft | 6 kts | 127° |
| 2026-04-22 09:03 | 48.71963 | 2.35908 | 311 ft | 6 kts | 117° |
| 2026-04-22 09:03 | 48.71964 | 2.35968 | 309 ft | 3 kts | 76° |
| 2026-04-22 09:03 | 48.71964 | 2.35971 | 309 ft | 4 kts | 76° |
| 2026-04-22 09:03 | 48.72032 | 2.36343 | 312 ft | 68 kts | 74° |
| 2026-04-22 09:04 | 48.72211 | 2.37322 | 309 ft | 123 kts | 76° |
| 2026-04-22 09:04 | 48.72483 | 2.38776 | 473 ft | 153 kts | 73° |
| 2026-04-22 09:04 | 48.72769 | 2.40267 | 1197 ft | 145 kts | 74° |
| 2026-04-22 09:04 | 48.73032 | 2.41713 | 1961 ft | 142 kts | 77° |
| 2026-04-22 09:05 | 48.73280 | 2.43096 | 2734 ft | 133 kts | 79° |
| 2026-04-22 09:05 | 48.73530 | 2.44447 | 3276 ft | 134 kts | 79° |
| 2026-04-22 09:05 | 48.73790 | 2.45874 | 3616 ft | 149 kts | 79° |
| 2026-04-22 09:05 | 48.73987 | 2.47500 | 3877 ft | 166 kts | 86° |
| 2026-04-22 09:06 | 48.74076 | 2.49349 | 4184 ft | 186 kts | 88° |
| 2026-04-22 09:06 | 48.74154 | 2.51435 | 4404 ft | 210 kts | 87° |
| 2026-04-22 09:06 | 48.74244 | 2.53742 | 4731 ft | 227 kts | 87° |
| 2026-04-22 09:06 | 48.74215 | 2.56178 | 5273 ft | 234 kts | 98° |
| 2026-04-22 09:07 | 48.73835 | 2.58601 | 5816 ft | 243 kts | 114° |
| 2026-04-22 09:07 | 48.72811 | 2.60646 | 6443 ft | 251 kts | 129° |
| 2026-04-22 09:07 | 48.71467 | 2.62409 | 7020 ft | 261 kts | 142° |
| 2026-04-22 09:07 | 48.69751 | 2.63462 | 7632 ft | 274 kts | 167° |
| 2026-04-22 09:08 | 48.67826 | 2.63179 | 8292 ft | 288 kts | 197° |
| 2026-04-22 09:08 | 48.66192 | 2.61376 | 8931 ft | 300 kts | 230° |
| 2026-04-22 09:08 | 48.65343 | 2.58490 | 9605 ft | 306 kts | 261° |
| 2026-04-22 09:08 | 48.65317 | 2.55280 | 10311 ft | 306 kts | 277° |
| 2026-04-22 09:09 | 48.65685 | 2.52041 | 10668 ft | 319 kts | 284° |
| 2026-04-22 09:09 | 48.66194 | 2.48682 | 10934 ft | 335 kts | 284° |
| 2026-04-22 09:09 | 48.66694 | 2.45203 | 11201 ft | 350 kts | 283° |
| 2026-04-22 09:09 | 48.67139 | 2.41502 | 11469 ft | 364 kts | 281° |
| 2026-04-22 09:10 | 48.67511 | 2.37637 | 11751 ft | 377 kts | 279° |
| 2026-04-22 09:10 | 48.67835 | 2.33625 | 12052 ft | 388 kts | 279° |
| 2026-04-22 09:10 | 48.68638 | 2.29727 | 12453 ft | 389 kts | 300° |
| 2026-04-22 09:10 | 48.69967 | 2.26211 | 13070 ft | 390 kts | 301° |
| 2026-04-22 09:11 | 48.71026 | 2.22419 | 13661 ft | 395 kts | 288° |
| 2026-04-22 09:11 | 48.71529 | 2.18312 | 14256 ft | 398 kts | 279° |
| 2026-04-22 09:11 | 48.71808 | 2.14153 | 14839 ft | 397 kts | 278° |
| 2026-04-22 09:11 | 48.72041 | 2.09983 | 15473 ft | 395 kts | 277° |
| 2026-04-22 09:12 | 48.72262 | 2.05842 | 16081 ft | 394 kts | 277° |
| 2026-04-22 09:12 | 48.72477 | 2.01691 | 16628 ft | 395 kts | 277° |
| 2026-04-22 09:12 | 48.72689 | 1.97536 | 17149 ft | 396 kts | 277° |
| 2026-04-22 09:12 | 48.72899 | 1.93375 | 17671 ft | 397 kts | 277° |
| 2026-04-22 09:13 | 48.73108 | 1.89199 | 18207 ft | 397 kts | 277° |
| 2026-04-22 09:13 | 48.73316 | 1.85025 | 18698 ft | 398 kts | 277° |
| 2026-04-22 09:13 | 48.73520 | 1.80880 | 19061 ft | 400 kts | 277° |
| 2026-04-22 09:13 | 48.73726 | 1.76657 | 19416 ft | 403 kts | 277° |
| 2026-04-22 09:14 | 48.73932 | 1.72412 | 19788 ft | 405 kts | 277° |
| 2026-04-22 09:14 | 48.74137 | 1.68148 | 20156 ft | 407 kts | 277° |
| 2026-04-22 09:14 | 48.74341 | 1.63867 | 20526 ft | 409 kts | 277° |
| 2026-04-22 09:14 | 48.74545 | 1.59559 | 20905 ft | 411 kts | 277° |
| 2026-04-22 09:15 | 48.74747 | 1.55234 | 21266 ft | 413 kts | 277° |
| 2026-04-22 09:15 | 48.74950 | 1.50884 | 21634 ft | 415 kts | 277° |
| 2026-04-22 09:15 | 48.75152 | 1.46505 | 22003 ft | 417 kts | 277° |
| 2026-04-22 09:15 | 48.75354 | 1.42108 | 22381 ft | 419 kts | 277° |
| 2026-04-22 09:16 | 48.75554 | 1.37690 | 22732 ft | 422 kts | 276° |
| 2026-04-22 09:16 | 48.75755 | 1.33246 | 23111 ft | 424 kts | 276° |
| 2026-04-22 09:16 | 48.75954 | 1.28767 | 23482 ft | 426 kts | 276° |
| 2026-04-22 09:16 | 48.76152 | 1.24264 | 23836 ft | 428 kts | 276° |
| 2026-04-22 09:17 | 48.76348 | 1.19799 | 24144 ft | 430 kts | 276° |
| 2026-04-22 09:17 | 48.76546 | 1.15247 | 24461 ft | 432 kts | 276° |
| 2026-04-22 09:17 | 48.76742 | 1.10684 | 24780 ft | 434 kts | 276° |
| 2026-04-22 09:17 | 48.76938 | 1.06103 | 25096 ft | 436 kts | 276° |
| 2026-04-22 09:18 | 48.77132 | 1.01504 | 25418 ft | 438 kts | 276° |
| 2026-04-22 09:18 | 48.77323 | 0.96951 | 25732 ft | 440 kts | 276° |
| 2026-04-22 09:18 | 48.77517 | 0.92256 | 26064 ft | 441 kts | 276° |
| 2026-04-22 09:18 | 48.77705 | 0.87663 | 26391 ft | 443 kts | 276° |
| 2026-04-22 09:19 | 48.77894 | 0.82994 | 26713 ft | 445 kts | 275° |
| 2026-04-22 09:19 | 48.78083 | 0.78295 | 27046 ft | 447 kts | 275° |
| 2026-04-22 09:19 | 48.78271 | 0.73569 | 27391 ft | 449 kts | 275° |
| 2026-04-22 09:19 | 48.78458 | 0.68834 | 27725 ft | 451 kts | 275° |
| 2026-04-22 09:20 | 48.78643 | 0.64066 | 28061 ft | 453 kts | 275° |
| 2026-04-22 09:20 | 48.78827 | 0.59288 | 28393 ft | 455 kts | 275° |
| 2026-04-22 09:20 | 48.79011 | 0.54490 | 28717 ft | 457 kts | 275° |
| 2026-04-22 09:20 | 48.79208 | 0.49668 | 29052 ft | 459 kts | 276° |
| 2026-04-22 09:21 | 48.79484 | 0.44842 | 29372 ft | 460 kts | 277° |
| 2026-04-22 09:21 | 48.79808 | 0.39997 | 29686 ft | 462 kts | 277° |
| 2026-04-22 09:21 | 48.80144 | 0.35138 | 29994 ft | 464 kts | 277° |
| 2026-04-22 09:21 | 48.80477 | 0.30263 | 30371 ft | 464 kts | 277° |
| 2026-04-22 09:22 | 48.80798 | 0.25404 | 30831 ft | 462 kts | 277° |
| 2026-04-22 09:22 | 48.81106 | 0.20561 | 31302 ft | 459 kts | 276° |
| 2026-04-22 09:22 | 48.81403 | 0.15763 | 31764 ft | 456 kts | 276° |
| 2026-04-22 09:22 | 48.81694 | 0.10980 | 32202 ft | 454 kts | 276° |
| 2026-04-22 09:23 | 48.81977 | 0.06277 | 32642 ft | 452 kts | 276° |
| 2026-04-22 09:23 | 48.82261 | 0.01522 | 33074 ft | 450 kts | 276° |
| 2026-04-22 09:23 | 48.82541 | -0.03196 | 33510 ft | 448 kts | 276° |
| 2026-04-22 09:23 | 48.82818 | -0.07899 | 33938 ft | 446 kts | 276° |
| 2026-04-22 09:24 | 48.83092 | -0.12581 | 34338 ft | 444 kts | 276° |
| 2026-04-22 09:24 | 48.83363 | -0.17239 | 34655 ft | 443 kts | 276° |
| 2026-04-22 09:24 | 48.83634 | -0.21911 | 34931 ft | 444 kts | 276° |
| 2026-04-22 09:24 | 48.83902 | -0.26571 | 35209 ft | 444 kts | 276° |
| 2026-04-22 09:25 | 48.84166 | -0.31235 | 35497 ft | 443 kts | 276° |
| 2026-04-22 09:25 | 48.84417 | -0.35891 | 35797 ft | 443 kts | 276° |
| 2026-04-22 09:25 | 48.84662 | -0.40546 | 36063 ft | 442 kts | 276° |
| 2026-04-22 09:26 | 48.85152 | -0.49964 | 36152 ft | 450 kts | 276° |
| 2026-04-22 09:26 | 48.85638 | -0.59358 | 36148 ft | 449 kts | 276° |
| 2026-04-22 09:27 | 48.86121 | -0.68809 | 36144 ft | 449 kts | 276° |
| 2026-04-22 09:27 | 48.86598 | -0.78270 | 36141 ft | 449 kts | 275° |
| 2026-04-22 09:28 | 48.87066 | -0.87736 | 36137 ft | 449 kts | 275° |
| 2026-04-22 09:28 | 48.87527 | -0.97181 | 36135 ft | 449 kts | 275° |
| 2026-04-22 09:29 | 48.87979 | -1.06633 | 36132 ft | 449 kts | 275° |
| 2026-04-22 09:29 | 48.88422 | -1.16040 | 36136 ft | 449 kts | 275° |
| 2026-04-22 09:30 | 48.88860 | -1.25505 | 36133 ft | 449 kts | 275° |
| 2026-04-22 09:30 | 48.89290 | -1.34974 | 36131 ft | 449 kts | 275° |
| 2026-04-22 09:31 | 48.89712 | -1.44446 | 36128 ft | 449 kts | 275° |
| 2026-04-22 09:31 | 48.90130 | -1.53923 | 36126 ft | 449 kts | 275° |
| 2026-04-22 09:32 | 48.90538 | -1.63345 | 36127 ft | 449 kts | 274° |
| 2026-04-22 09:32 | 48.90938 | -1.72828 | 36125 ft | 450 kts | 274° |
| 2026-04-22 09:33 | 48.91337 | -1.82335 | 36127 ft | 450 kts | 274° |
| 2026-04-22 09:33 | 48.91721 | -1.91782 | 36124 ft | 450 kts | 274° |
| 2026-04-22 09:34 | 48.92099 | -2.01299 | 36121 ft | 450 kts | 274° |
| 2026-04-22 09:34 | 48.92471 | -2.10821 | 36118 ft | 451 kts | 274° |
| 2026-04-22 09:35 | 48.93016 | -2.25105 | 36117 ft | 451 kts | 274° |
| 2026-04-22 09:35 | 48.93369 | -2.34598 | 36117 ft | 451 kts | 274° |
| 2026-04-22 09:36 | 48.93715 | -2.44135 | 36116 ft | 451 kts | 273° |
| 2026-04-22 09:36 | 48.94447 | -2.53613 | 36117 ft | 451 kts | 279° |
| 2026-04-22 09:37 | 48.95493 | -2.63038 | 36119 ft | 452 kts | 279° |
| 2026-04-22 09:37 | 48.96580 | -2.72462 | 36119 ft | 452 kts | 279° |
| 2026-04-22 09:38 | 48.97654 | -2.81843 | 36119 ft | 452 kts | 279° |
| 2026-04-22 09:38 | 48.98717 | -2.91273 | 36115 ft | 452 kts | 279° |
| 2026-04-22 09:39 | 48.99772 | -3.00731 | 36116 ft | 452 kts | 279° |
| 2026-04-22 09:39 | 49.00817 | -3.10180 | 36112 ft | 452 kts | 278° |
| 2026-04-22 09:40 | 49.01854 | -3.19628 | 36104 ft | 452 kts | 278° |
| 2026-04-22 09:40 | 49.02877 | -3.29027 | 36105 ft | 452 kts | 278° |
| 2026-04-22 09:41 | 49.03898 | -3.38474 | 36103 ft | 451 kts | 278° |
| 2026-04-22 09:41 | 49.04911 | -3.47922 | 36099 ft | 451 kts | 278° |
| 2026-04-22 09:42 | 49.05915 | -3.57365 | 36104 ft | 451 kts | 278° |
| 2026-04-22 09:42 | 49.06908 | -3.66782 | 36106 ft | 452 kts | 277° |
| 2026-04-22 09:43 | 49.07900 | -3.76257 | 36109 ft | 453 kts | 277° |
| 2026-04-22 09:43 | 49.08885 | -3.85749 | 36107 ft | 453 kts | 277° |
| 2026-04-22 09:44 | 49.09864 | -3.95257 | 36109 ft | 453 kts | 277° |
| 2026-04-22 09:44 | 49.10828 | -4.04701 | 36106 ft | 454 kts | 277° |
| 2026-04-22 09:45 | 49.11791 | -4.14224 | 36107 ft | 454 kts | 277° |
| 2026-04-22 09:45 | 49.12747 | -4.23757 | 36108 ft | 454 kts | 276° |
| 2026-04-22 09:46 | 49.13696 | -4.33313 | 36109 ft | 455 kts | 276° |
| 2026-04-22 09:46 | 49.14638 | -4.42875 | 36110 ft | 455 kts | 276° |
| 2026-04-22 09:47 | 49.15574 | -4.52439 | 36112 ft | 455 kts | 276° |
| 2026-04-22 09:47 | 49.16495 | -4.61945 | 36114 ft | 455 kts | 276° |
| 2026-04-22 09:48 | 49.17413 | -4.71505 | 36114 ft | 456 kts | 276° |
| 2026-04-22 09:48 | 49.18326 | -4.81100 | 36111 ft | 456 kts | 276° |
| 2026-04-22 09:49 | 49.19233 | -4.90720 | 36113 ft | 457 kts | 276° |
| 2026-04-22 09:49 | 49.20131 | -5.00340 | 36109 ft | 457 kts | 276° |
| 2026-04-22 09:50 | 49.21021 | -5.09967 | 36109 ft | 457 kts | 275° |
| 2026-04-22 09:50 | 49.21755 | -5.17966 | 36107 ft | 457 kts | 275° |
| 2026-04-22 09:51 | 49.22773 | -5.29164 | 36107 ft | 457 kts | 275° |
| 2026-04-22 09:51 | 49.23496 | -5.37193 | 36107 ft | 457 kts | 275° |
| 2026-04-22 09:52 | 49.24357 | -5.46834 | 36100 ft | 457 kts | 275° |
| 2026-04-22 09:52 | 49.25210 | -5.56492 | 36102 ft | 458 kts | 275° |
| 2026-04-22 09:53 | 49.26056 | -5.66151 | 36101 ft | 458 kts | 275° |
| 2026-04-22 09:53 | 49.26893 | -5.75819 | 36102 ft | 458 kts | 275° |
| 2026-04-22 09:54 | 49.27720 | -5.85455 | 36098 ft | 458 kts | 274° |
| 2026-04-22 09:54 | 49.28543 | -5.95154 | 36097 ft | 459 kts | 274° |
| 2026-04-22 09:55 | 49.29359 | -6.04856 | 36092 ft | 459 kts | 274° |
| 2026-04-22 09:55 | 49.30161 | -6.14496 | 36091 ft | 459 kts | 274° |
| 2026-04-22 09:56 | 49.30961 | -6.24211 | 36090 ft | 460 kts | 274° |
| 2026-04-22 09:56 | 49.31754 | -6.33936 | 36089 ft | 460 kts | 274° |
| 2026-04-22 09:57 | 49.32539 | -6.43672 | 36084 ft | 460 kts | 273° |
| 2026-04-22 09:57 | 49.33318 | -6.53436 | 36085 ft | 461 kts | 273° |
| 2026-04-22 09:58 | 49.34083 | -6.63140 | 36086 ft | 461 kts | 273° |
| 2026-04-22 09:58 | 49.34846 | -6.72915 | 36082 ft | 461 kts | 273° |
| 2026-04-22 09:59 | 49.35600 | -6.82696 | 36078 ft | 461 kts | 272° |
| 2026-04-22 09:59 | 49.36342 | -6.92415 | 36077 ft | 461 kts | 272° |
| 2026-04-22 10:00 | 49.37080 | -7.02209 | 36068 ft | 461 kts | 272° |
| 2026-04-22 10:00 | 49.37881 | -7.12000 | 36078 ft | 464 kts | 276° |
| 2026-04-22 10:01 | 49.39162 | -7.21678 | 36074 ft | 466 kts | 277° |
| 2026-04-22 10:01 | 49.40539 | -7.31419 | 36065 ft | 467 kts | 278° |
| 2026-04-22 10:02 | 49.41926 | -7.41188 | 36058 ft | 468 kts | 277° |
| 2026-04-22 10:02 | 49.43301 | -7.50983 | 36054 ft | 468 kts | 277° |
| 2026-04-22 10:03 | 49.44658 | -7.60762 | 36045 ft | 469 kts | 277° |
| 2026-04-22 10:03 | 49.46010 | -7.70581 | 36040 ft | 469 kts | 277° |
| 2026-04-22 10:04 | 49.47358 | -7.80434 | 36034 ft | 470 kts | 277° |
| 2026-04-22 10:04 | 49.48689 | -7.90225 | 36031 ft | 470 kts | 277° |
| 2026-04-22 10:05 | 49.50020 | -8.00083 | 36029 ft | 471 kts | 277° |
| 2026-04-22 10:05 | 49.51165 | -8.09978 | 36026 ft | 469 kts | 274° |
| 2026-04-22 10:06 | 49.52099 | -8.19923 | 36027 ft | 469 kts | 273° |
| 2026-04-22 10:06 | 49.53041 | -8.29873 | 36024 ft | 470 kts | 273° |
| 2026-04-22 10:07 | 49.54016 | -8.39835 | 36022 ft | 471 kts | 274° |
| 2026-04-22 10:07 | 49.55002 | -8.49835 | 36027 ft | 472 kts | 273° |
| 2026-04-22 10:08 | 49.55982 | -8.59839 | 36024 ft | 473 kts | 273° |
| 2026-04-22 10:08 | 49.56946 | -8.69803 | 36021 ft | 473 kts | 273° |
| 2026-04-22 10:09 | 49.57909 | -8.79855 | 36016 ft | 474 kts | 273° |
| 2026-04-22 10:09 | 49.58866 | -8.89940 | 36018 ft | 475 kts | 273° |
| 2026-04-22 10:10 | 49.59815 | -9.00038 | 36011 ft | 476 kts | 272° |
| 2026-04-22 10:10 | 49.60756 | -9.10151 | 36009 ft | 477 kts | 272° |
| 2026-04-22 10:11 | 49.61685 | -9.20227 | 36006 ft | 478 kts | 272° |
| 2026-04-22 10:11 | 49.62614 | -9.30403 | 35998 ft | 479 kts | 272° |
| 2026-04-22 10:12 | 49.63536 | -9.40604 | 35998 ft | 480 kts | 272° |
| 2026-04-22 10:12 | 49.64451 | -9.50838 | 35994 ft | 481 kts | 272° |
| 2026-04-22 10:13 | 49.65353 | -9.61029 | 35996 ft | 482 kts | 272° |
| 2026-04-22 10:13 | 49.66253 | -9.71299 | 35985 ft | 483 kts | 272° |
| 2026-04-22 10:14 | 49.67145 | -9.81590 | 35978 ft | 484 kts | 272° |
| 2026-04-22 10:14 | 49.68030 | -9.91905 | 35974 ft | 485 kts | 272° |
| 2026-04-22 10:15 | 49.68909 | -10.02257 | 35965 ft | 486 kts | 272° |
| 2026-04-22 10:15 | 49.69774 | -10.12568 | 35968 ft | 486 kts | 272° |
| 2026-04-22 10:16 | 49.70636 | -10.22950 | 35961 ft | 487 kts | 272° |
| 2026-04-22 10:16 | 49.71490 | -10.33353 | 35955 ft | 488 kts | 272° |
| 2026-04-22 10:17 | 49.72331 | -10.43713 | 35950 ft | 489 kts | 272° |
| 2026-04-22 10:17 | 49.73170 | -10.54162 | 35945 ft | 489 kts | 272° |
| 2026-04-22 10:18 | 49.73999 | -10.64616 | 35943 ft | 490 kts | 272° |
| 2026-04-22 10:18 | 49.74820 | -10.75081 | 35928 ft | 490 kts | 272° |
| 2026-04-22 10:19 | 49.75632 | -10.85561 | 35925 ft | 491 kts | 272° |
| 2026-04-22 10:19 | 49.76436 | -10.96077 | 35928 ft | 492 kts | 272° |
| 2026-04-22 10:20 | 49.77226 | -11.06526 | 35915 ft | 492 kts | 272° |
| 2026-04-22 10:20 | 49.78014 | -11.17071 | 35909 ft | 493 kts | 271° |
| 2026-04-22 10:21 | 49.78791 | -11.27614 | 35911 ft | 493 kts | 272° |
| 2026-04-22 10:21 | 49.79561 | -11.38178 | 35901 ft | 494 kts | 271° |
| 2026-04-22 10:22 | 49.80317 | -11.48691 | 35898 ft | 494 kts | 271° |
| 2026-04-22 10:22 | 49.81070 | -11.59297 | 35892 ft | 495 kts | 271° |
| 2026-04-22 10:23 | 49.81814 | -11.69912 | 35889 ft | 496 kts | 271° |
| 2026-04-22 10:23 | 49.82549 | -11.80536 | 35884 ft | 496 kts | 271° |
| 2026-04-22 10:24 | 49.83273 | -11.91179 | 35880 ft | 497 kts | 271° |
| 2026-04-22 10:24 | 49.83990 | -12.01830 | 35874 ft | 498 kts | 272° |
| 2026-04-22 10:25 | 49.84695 | -12.12445 | 35866 ft | 498 kts | 271° |
| 2026-04-22 10:25 | 49.85394 | -12.23145 | 35861 ft | 499 kts | 271° |
| 2026-04-22 10:26 | 49.86084 | -12.33868 | 35854 ft | 500 kts | 271° |
| 2026-04-22 10:26 | 49.86763 | -12.44611 | 35847 ft | 501 kts | 271° |
| 2026-04-22 10:27 | 49.87434 | -12.55374 | 35846 ft | 502 kts | 271° |
| 2026-04-22 10:27 | 49.88097 | -12.66099 | 35840 ft | 503 kts | 271° |
| 2026-04-22 10:28 | 49.88754 | -12.76909 | 35836 ft | 503 kts | 271° |
| 2026-04-22 10:28 | 49.89402 | -12.87731 | 35826 ft | 504 kts | 271° |
| 2026-04-22 10:29 | 49.90035 | -12.98505 | 35824 ft | 504 kts | 271° |
| 2026-04-22 10:29 | 49.90663 | -13.09381 | 35818 ft | 505 kts | 271° |
| 2026-04-22 10:30 | 49.91280 | -13.20243 | 35813 ft | 506 kts | 271° |
| 2026-04-22 10:30 | 49.91891 | -13.31122 | 35807 ft | 506 kts | 271° |
| 2026-04-22 10:31 | 49.92486 | -13.41951 | 35802 ft | 506 kts | 271° |
| 2026-04-22 10:31 | 49.93072 | -13.52847 | 35801 ft | 507 kts | 271° |
| 2026-04-22 10:32 | 49.93647 | -13.63760 | 35795 ft | 507 kts | 271° |
| 2026-04-22 10:32 | 49.94215 | -13.74681 | 35784 ft | 508 kts | 271° |
| 2026-04-22 10:33 | 49.94779 | -13.85611 | 35788 ft | 508 kts | 271° |
| 2026-04-22 10:33 | 49.95328 | -13.96555 | 35777 ft | 508 kts | 270° |
| 2026-04-22 10:34 | 49.95866 | -14.07432 | 35782 ft | 509 kts | 271° |
| 2026-04-22 10:34 | 49.96389 | -14.18404 | 35771 ft | 508 kts | 270° |
| 2026-04-22 10:35 | 49.96909 | -14.29363 | 35764 ft | 509 kts | 270° |
| 2026-04-22 10:35 | 49.97428 | -14.40326 | 35768 ft | 508 kts | 271° |
| 2026-04-22 10:36 | 49.97928 | -14.51294 | 35757 ft | 508 kts | 270° |
| 2026-04-22 10:36 | 49.98409 | -14.62264 | 35749 ft | 509 kts | 270° |
| 2026-04-22 10:37 | 49.99112 | -14.78649 | 35739 ft | 509 kts | 270° |
| 2026-04-22 10:38 | 49.99580 | -14.89641 | 35738 ft | 509 kts | 270° |
| 2026-04-22 10:38 | 49.99595 | -15.00594 | 35735 ft | 503 kts | 259° |
| 2026-04-22 10:39 | 49.98111 | -15.11167 | 35730 ft | 500 kts | 251° |
| 2026-04-22 10:39 | 49.96277 | -15.21597 | 35722 ft | 500 kts | 251° |
| 2026-04-22 10:40 | 49.94401 | -15.31927 | 35717 ft | 501 kts | 251° |
| 2026-04-22 10:40 | 49.92522 | -15.42345 | 35707 ft | 501 kts | 251° |
| 2026-04-22 10:41 | 49.90645 | -15.52780 | 35705 ft | 502 kts | 251° |
| 2026-04-22 10:41 | 49.88761 | -15.63213 | 35694 ft | 502 kts | 251° |
| 2026-04-22 10:42 | 49.86869 | -15.73639 | 35689 ft | 502 kts | 251° |
| 2026-04-22 10:42 | 49.85290 | -15.82307 | 35687 ft | 503 kts | 251° |
| 2026-04-22 10:43 | 49.83378 | -15.92738 | 35681 ft | 503 kts | 250° |
| 2026-04-22 10:43 | 49.81451 | -16.03186 | 35670 ft | 504 kts | 250° |
| 2026-04-22 10:44 | 49.79526 | -16.13559 | 35666 ft | 504 kts | 250° |
| 2026-04-22 10:44 | 49.77578 | -16.23991 | 35661 ft | 504 kts | 250° |
| 2026-04-22 10:45 | 49.75623 | -16.34409 | 35651 ft | 505 kts | 250° |
| 2026-04-22 10:45 | 49.73655 | -16.44839 | 35652 ft | 505 kts | 250° |
| 2026-04-22 10:46 | 49.71675 | -16.55273 | 35650 ft | 505 kts | 250° |
| 2026-04-22 10:46 | 49.69689 | -16.65689 | 35644 ft | 506 kts | 250° |
| 2026-04-22 10:47 | 49.67698 | -16.76070 | 35628 ft | 506 kts | 250° |
| 2026-04-22 10:47 | 49.65689 | -16.86489 | 35631 ft | 506 kts | 250° |
| 2026-04-22 10:48 | 49.63667 | -16.96921 | 35620 ft | 507 kts | 250° |
| 2026-04-22 10:48 | 49.61636 | -17.07341 | 35613 ft | 507 kts | 250° |
| 2026-04-22 10:49 | 49.59597 | -17.17746 | 35613 ft | 507 kts | 250° |
| 2026-04-22 10:49 | 49.57564 | -17.28076 | 35603 ft | 507 kts | 250° |
| 2026-04-22 10:50 | 49.55501 | -17.38488 | 35611 ft | 507 kts | 250° |
| 2026-04-22 10:50 | 49.53429 | -17.48876 | 35595 ft | 508 kts | 249° |
| 2026-04-22 10:51 | 49.51346 | -17.59274 | 35599 ft | 508 kts | 249° |
| 2026-04-22 10:51 | 49.49266 | -17.69601 | 35587 ft | 508 kts | 249° |
| 2026-04-22 10:52 | 49.47163 | -17.79991 | 35584 ft | 508 kts | 249° |
| 2026-04-22 10:52 | 49.45054 | -17.90360 | 35576 ft | 508 kts | 249° |
| 2026-04-22 10:53 | 49.42937 | -18.00719 | 35579 ft | 508 kts | 249° |
| 2026-04-22 10:53 | 49.40809 | -18.11079 | 35572 ft | 508 kts | 249° |
| 2026-04-22 10:53 | 49.39738 | -18.16259 | 35789 ft | 511 kts | 249° |
| 2026-04-22 10:54 | 49.38655 | -18.21482 | 35587 ft | 516 kts | 249° |
| 2026-04-22 10:54 | 49.36478 | -18.31962 | 35566 ft | 519 kts | 249° |
| 2026-04-22 10:55 | 49.34275 | -18.42527 | 35566 ft | 519 kts | 249° |
| 2026-04-22 10:55 | 49.32060 | -18.53084 | 35563 ft | 520 kts | 249° |
| 2026-04-22 10:56 | 49.29838 | -18.63616 | 35559 ft | 520 kts | 249° |
| 2026-04-22 10:56 | 49.27601 | -18.74160 | 35559 ft | 520 kts | 249° |
| 2026-04-22 10:57 | 49.25367 | -18.84637 | 35556 ft | 520 kts | 249° |
| 2026-04-22 10:57 | 49.23111 | -18.95157 | 35549 ft | 521 kts | 249° |
| 2026-04-22 10:58 | 49.20844 | -19.05682 | 35656 ft | 520 kts | 249° |
| 2026-04-22 10:58 | 49.19706 | -19.10948 | 35863 ft | 521 kts | 249° |
| 2026-04-22 10:58 | 49.18566 | -19.16204 | 36063 ft | 521 kts | 249° |
| 2026-04-22 10:58 | 49.17425 | -19.21456 | 36259 ft | 520 kts | 249° |
| 2026-04-22 10:59 | 49.16281 | -19.26703 | 36458 ft | 520 kts | 249° |
| 2026-04-22 10:59 | 49.15136 | -19.31947 | 36652 ft | 520 kts | 249° |
| 2026-04-22 10:59 | 49.13990 | -19.37175 | 36872 ft | 519 kts | 249° |
| 2026-04-22 10:59 | 49.12857 | -19.42336 | 37066 ft | 519 kts | 249° |
| 2026-04-22 11:00 | 49.11706 | -19.47563 | 37275 ft | 519 kts | 249° |
| 2026-04-22 11:00 | 49.10550 | -19.52804 | 37482 ft | 519 kts | 249° |
| 2026-04-22 11:00 | 49.09392 | -19.58038 | 37534 ft | 519 kts | 249° |
| 2026-04-22 11:01 | 49.07073 | -19.68478 | 37539 ft | 519 kts | 249° |
| 2026-04-22 11:01 | 49.04758 | -19.78848 | 37536 ft | 519 kts | 249° |
| 2026-04-22 11:02 | 49.02423 | -19.89259 | 37521 ft | 519 kts | 249° |
| 2026-04-22 11:02 | 48.99987 | -19.99633 | 37542 ft | 518 kts | 243° |
| 2026-04-22 11:03 | 48.96897 | -20.09513 | 37533 ft | 517 kts | 241° |
| 2026-04-22 11:03 | 48.93658 | -20.19290 | 37521 ft | 517 kts | 240° |
| 2026-04-22 11:04 | 48.90410 | -20.28981 | 37524 ft | 517 kts | 240° |
| 2026-04-22 11:04 | 48.87140 | -20.38742 | 37523 ft | 517 kts | 240° |
| 2026-04-22 11:05 | 48.83873 | -20.48488 | 37518 ft | 517 kts | 240° |
| 2026-04-22 11:05 | 48.80602 | -20.58215 | 37519 ft | 517 kts | 240° |
| 2026-04-22 11:06 | 48.77324 | -20.67927 | 37519 ft | 518 kts | 240° |
| 2026-04-22 11:06 | 48.74035 | -20.77632 | 37514 ft | 518 kts | 240° |
| 2026-04-22 11:07 | 48.70737 | -20.87326 | 37513 ft | 518 kts | 240° |
| 2026-04-22 11:07 | 48.67448 | -20.96955 | 37509 ft | 518 kts | 240° |
| 2026-04-22 11:08 | 48.64126 | -21.06648 | 37507 ft | 519 kts | 240° |
| 2026-04-22 11:08 | 48.60797 | -21.16326 | 37508 ft | 519 kts | 240° |
| 2026-04-22 11:09 | 48.57455 | -21.26000 | 37504 ft | 519 kts | 240° |
| 2026-04-22 11:09 | 48.54102 | -21.35669 | 37501 ft | 520 kts | 240° |
| 2026-04-22 11:10 | 48.50742 | -21.45325 | 37496 ft | 520 kts | 240° |
| 2026-04-22 11:10 | 48.47369 | -21.54982 | 37496 ft | 521 kts | 240° |
| 2026-04-22 11:11 | 48.43986 | -21.64633 | 37494 ft | 521 kts | 240° |
| 2026-04-22 11:11 | 48.40609 | -21.74233 | 37494 ft | 522 kts | 240° |
| 2026-04-22 11:12 | 48.37202 | -21.83878 | 37489 ft | 522 kts | 240° |
| 2026-04-22 11:12 | 48.33784 | -21.93521 | 37491 ft | 522 kts | 239° |
| 2026-04-22 11:13 | 48.30366 | -22.03137 | 37439 ft | 518 kts | 239° |
| 2026-04-22 11:13 | 48.26983 | -22.12618 | 37481 ft | 513 kts | 239° |
| 2026-04-22 11:14 | 48.23621 | -22.21991 | 37483 ft | 513 kts | 239° |
| 2026-04-22 11:14 | 48.20227 | -22.31421 | 37475 ft | 513 kts | 239° |
| 2026-04-22 11:15 | 48.16828 | -22.40835 | 37470 ft | 513 kts | 239° |
| 2026-04-22 11:15 | 48.13422 | -22.50237 | 37469 ft | 514 kts | 239° |
| 2026-04-22 11:16 | 48.10023 | -22.59585 | 37465 ft | 514 kts | 239° |
| 2026-04-22 11:16 | 48.06602 | -22.68963 | 37467 ft | 515 kts | 239° |
| 2026-04-22 11:17 | 48.03155 | -22.78376 | 37459 ft | 516 kts | 239° |
| 2026-04-22 11:17 | 47.99700 | -22.87781 | 37459 ft | 516 kts | 239° |
| 2026-04-22 11:18 | 47.96234 | -22.97179 | 37454 ft | 516 kts | 239° |
| 2026-04-22 11:18 | 47.92764 | -23.06554 | 37456 ft | 517 kts | 239° |
| 2026-04-22 11:19 | 47.89281 | -23.15932 | 37449 ft | 517 kts | 239° |
| 2026-04-22 11:19 | 47.85793 | -23.25291 | 37442 ft | 517 kts | 238° |
| 2026-04-22 11:20 | 47.82316 | -23.34588 | 37449 ft | 517 kts | 238° |
| 2026-04-22 11:20 | 47.78805 | -23.43941 | 37442 ft | 517 kts | 238° |
| 2026-04-22 11:21 | 47.75290 | -23.53274 | 37441 ft | 517 kts | 238° |
| 2026-04-22 11:21 | 47.71762 | -23.62606 | 37435 ft | 518 kts | 238° |
| 2026-04-22 11:22 | 47.68227 | -23.71927 | 37432 ft | 518 kts | 238° |
| 2026-04-22 11:22 | 47.64678 | -23.81251 | 37431 ft | 519 kts | 238° |
| 2026-04-22 11:23 | 47.61120 | -23.90566 | 37410 ft | 520 kts | 238° |
| 2026-04-22 11:23 | 47.57570 | -23.99829 | 37418 ft | 520 kts | 238° |
| 2026-04-22 11:24 | 47.53984 | -24.09150 | 37417 ft | 521 kts | 238° |
| 2026-04-22 11:24 | 47.50388 | -24.18467 | 37414 ft | 522 kts | 238° |
| 2026-04-22 11:25 | 47.46777 | -24.27792 | 37410 ft | 522 kts | 238° |
| 2026-04-22 11:25 | 47.43150 | -24.37120 | 37409 ft | 523 kts | 238° |
| 2026-04-22 11:26 | 47.39538 | -24.46382 | 37408 ft | 524 kts | 238° |
| 2026-04-22 11:26 | 47.35895 | -24.55695 | 37399 ft | 524 kts | 238° |
| 2026-04-22 11:27 | 47.32233 | -24.65023 | 37400 ft | 525 kts | 238° |
| 2026-04-22 11:27 | 47.28562 | -24.74336 | 37397 ft | 525 kts | 238° |
| 2026-04-22 11:28 | 47.24901 | -24.83595 | 37395 ft | 525 kts | 238° |
| 2026-04-22 11:28 | 47.21213 | -24.92892 | 37391 ft | 526 kts | 238° |
| 2026-04-22 11:29 | 47.17510 | -25.02193 | 37387 ft | 526 kts | 238° |
| 2026-04-22 11:29 | 47.13801 | -25.11478 | 37386 ft | 526 kts | 238° |
| 2026-04-22 11:30 | 47.10084 | -25.20751 | 37384 ft | 527 kts | 238° |
| 2026-04-22 11:30 | 47.06358 | -25.30015 | 37383 ft | 527 kts | 238° |
| 2026-04-22 11:31 | 47.02647 | -25.39208 | 37380 ft | 527 kts | 238° |
| 2026-04-22 11:31 | 46.98893 | -25.48471 | 37383 ft | 530 kts | 239° |
| 2026-04-22 11:32 | 46.95123 | -25.57753 | 37378 ft | 530 kts | 239° |
| 2026-04-22 11:32 | 46.91344 | -25.67025 | 37378 ft | 531 kts | 239° |
| 2026-04-22 11:33 | 46.88189 | -25.74740 | 37384 ft | 531 kts | 239° |
| 2026-04-22 11:33 | 46.84388 | -25.84005 | 37375 ft | 531 kts | 239° |
| 2026-04-22 11:34 | 46.80577 | -25.93257 | 37380 ft | 531 kts | 239° |
| 2026-04-22 11:34 | 46.76760 | -26.02503 | 37381 ft | 532 kts | 240° |
| 2026-04-22 11:35 | 46.72927 | -26.11752 | 37382 ft | 532 kts | 240° |
| 2026-04-22 11:35 | 46.69120 | -26.20913 | 37385 ft | 532 kts | 240° |
| 2026-04-22 11:36 | 46.65276 | -26.30125 | 37383 ft | 532 kts | 240° |
| 2026-04-22 11:36 | 46.61423 | -26.39330 | 37384 ft | 532 kts | 240° |
| 2026-04-22 11:37 | 46.57563 | -26.48513 | 37384 ft | 532 kts | 240° |
| 2026-04-22 11:37 | 46.53696 | -26.57697 | 37392 ft | 532 kts | 240° |
| 2026-04-22 11:38 | 46.49889 | -26.66698 | 37395 ft | 532 kts | 240° |
| 2026-04-22 11:38 | 46.44250 | -26.79980 | 37399 ft | 532 kts | 240° |
| 2026-04-22 11:39 | 46.40352 | -26.89123 | 37397 ft | 532 kts | 240° |
| 2026-04-22 11:39 | 46.36453 | -26.98242 | 37402 ft | 532 kts | 240° |
| 2026-04-22 11:40 | 46.32570 | -27.07297 | 37408 ft | 532 kts | 240° |
| 2026-04-22 11:40 | 46.28662 | -27.16374 | 37409 ft | 531 kts | 240° |
| 2026-04-22 11:41 | 46.24747 | -27.25437 | 37416 ft | 531 kts | 240° |
| 2026-04-22 11:41 | 46.20832 | -27.34477 | 37419 ft | 531 kts | 239° |
| 2026-04-22 11:42 | 46.16908 | -27.43504 | 37422 ft | 530 kts | 239° |
| 2026-04-22 11:42 | 46.12978 | -27.52521 | 37421 ft | 530 kts | 239° |
| 2026-04-22 11:43 | 46.09068 | -27.61459 | 37426 ft | 530 kts | 239° |
| 2026-04-22 11:43 | 46.05130 | -27.70429 | 37432 ft | 529 kts | 239° |
| 2026-04-22 11:44 | 46.01190 | -27.79377 | 37435 ft | 528 kts | 239° |
| 2026-04-22 11:44 | 45.97249 | -27.88303 | 37440 ft | 528 kts | 239° |
| 2026-04-22 11:45 | 45.93300 | -27.97216 | 37440 ft | 528 kts | 239° |
| 2026-04-22 11:45 | 45.89354 | -28.06093 | 37447 ft | 527 kts | 239° |
| 2026-04-22 11:46 | 45.85425 | -28.14899 | 37451 ft | 527 kts | 239° |
| 2026-04-22 11:46 | 45.81464 | -28.23751 | 37456 ft | 526 kts | 239° |
| 2026-04-22 11:47 | 45.77501 | -28.32584 | 37459 ft | 526 kts | 239° |
| 2026-04-22 11:47 | 45.73544 | -28.41381 | 37462 ft | 525 kts | 239° |
| 2026-04-22 11:48 | 45.69583 | -28.50158 | 37465 ft | 525 kts | 239° |
| 2026-04-22 11:48 | 45.65610 | -28.58928 | 37469 ft | 525 kts | 239° |
| 2026-04-22 11:49 | 45.61635 | -28.67674 | 37473 ft | 524 kts | 239° |
| 2026-04-22 11:49 | 45.57684 | -28.76343 | 37481 ft | 524 kts | 239° |
| 2026-04-22 11:50 | 45.53699 | -28.85063 | 37485 ft | 523 kts | 239° |
| 2026-04-22 11:50 | 45.49714 | -28.93752 | 37481 ft | 523 kts | 239° |
| 2026-04-22 11:51 | 45.45727 | -29.02417 | 37488 ft | 522 kts | 239° |
| 2026-04-22 11:51 | 45.41738 | -29.11063 | 37486 ft | 522 kts | 239° |
| 2026-04-22 11:52 | 45.37774 | -29.19630 | 37507 ft | 521 kts | 239° |
| 2026-04-22 11:52 | 45.33780 | -29.28235 | 37510 ft | 521 kts | 239° |
| 2026-04-22 11:53 | 45.29779 | -29.36830 | 37502 ft | 521 kts | 239° |
| 2026-04-22 11:53 | 45.25777 | -29.45403 | 37510 ft | 520 kts | 239° |
| 2026-04-22 11:54 | 45.21780 | -29.53937 | 37513 ft | 520 kts | 239° |
| 2026-04-22 11:54 | 45.17757 | -29.62508 | 37509 ft | 519 kts | 239° |
| 2026-04-22 11:55 | 45.13768 | -29.70971 | 37521 ft | 519 kts | 239° |
| 2026-04-22 11:55 | 45.09749 | -29.79468 | 37523 ft | 519 kts | 239° |
| 2026-04-22 11:56 | 45.05711 | -29.87989 | 37534 ft | 520 kts | 239° |
| 2026-04-22 11:56 | 45.01686 | -29.96458 | 37533 ft | 519 kts | 238° |
| 2026-04-22 11:57 | 44.97640 | -30.04861 | 37542 ft | 519 kts | 238° |
| 2026-04-22 11:57 | 44.93433 | -30.13142 | 37545 ft | 519 kts | 237° |
| 2026-04-22 11:58 | 44.89181 | -30.21424 | 37543 ft | 519 kts | 237° |
| 2026-04-22 11:58 | 44.84969 | -30.29659 | 37559 ft | 518 kts | 237° |
| 2026-04-22 11:59 | 44.80786 | -30.37862 | 37560 ft | 518 kts | 237° |
| 2026-04-22 11:59 | 44.76570 | -30.46106 | 37566 ft | 518 kts | 237° |
| 2026-04-22 12:00 | 44.72355 | -30.54327 | 37575 ft | 517 kts | 237° |
| 2026-04-22 12:00 | 44.68162 | -30.62479 | 37581 ft | 517 kts | 237° |
| 2026-04-22 12:01 | 44.63933 | -30.70674 | 37587 ft | 517 kts | 237° |
| 2026-04-22 12:01 | 44.59734 | -30.78801 | 37594 ft | 516 kts | 237° |
| 2026-04-22 12:02 | 44.55515 | -30.86937 | 37601 ft | 516 kts | 237° |
| 2026-04-22 12:02 | 44.51280 | -30.95083 | 37607 ft | 515 kts | 237° |
| 2026-04-22 12:03 | 44.47051 | -31.03191 | 37615 ft | 515 kts | 237° |
| 2026-04-22 12:03 | 44.42830 | -31.11252 | 37617 ft | 515 kts | 237° |
| 2026-04-22 12:04 | 44.38581 | -31.19353 | 37629 ft | 515 kts | 237° |
| 2026-04-22 12:04 | 44.34355 | -31.27390 | 37636 ft | 515 kts | 237° |
| 2026-04-22 12:05 | 44.30097 | -31.35459 | 37636 ft | 515 kts | 237° |
| 2026-04-22 12:05 | 44.25840 | -31.43512 | 37647 ft | 514 kts | 237° |
| 2026-04-22 12:06 | 44.21612 | -31.51484 | 37650 ft | 514 kts | 236° |
| 2026-04-22 12:06 | 44.17356 | -31.59488 | 37658 ft | 514 kts | 236° |
| 2026-04-22 12:07 | 44.13087 | -31.67490 | 37665 ft | 514 kts | 236° |
| 2026-04-22 12:07 | 44.08820 | -31.75471 | 37670 ft | 514 kts | 236° |
| 2026-04-22 12:08 | 44.04564 | -31.83407 | 37669 ft | 514 kts | 236° |
| 2026-04-22 12:08 | 44.00281 | -31.91371 | 37678 ft | 514 kts | 236° |
| 2026-04-22 12:09 | 43.95995 | -31.99318 | 37685 ft | 514 kts | 236° |
| 2026-04-22 12:09 | 43.91698 | -32.07264 | 37692 ft | 514 kts | 236° |
| 2026-04-22 12:10 | 43.87396 | -32.15199 | 37697 ft | 514 kts | 236° |
| 2026-04-22 12:10 | 43.83118 | -32.23065 | 37699 ft | 514 kts | 236° |
| 2026-04-22 12:11 | 43.78804 | -32.30978 | 37711 ft | 514 kts | 236° |
| 2026-04-22 12:11 | 43.74493 | -32.38863 | 37714 ft | 514 kts | 236° |
| 2026-04-22 12:12 | 43.70174 | -32.46744 | 37721 ft | 513 kts | 236° |
| 2026-04-22 12:12 | 43.65883 | -32.54546 | 37727 ft | 513 kts | 236° |
| 2026-04-22 12:13 | 43.61564 | -32.62384 | 37749 ft | 512 kts | 236° |
| 2026-04-22 12:13 | 43.57244 | -32.70210 | 37726 ft | 512 kts | 236° |
| 2026-04-22 12:14 | 43.52922 | -32.78014 | 37748 ft | 512 kts | 236° |
| 2026-04-22 12:14 | 43.48588 | -32.85817 | 37749 ft | 512 kts | 236° |
| 2026-04-22 12:15 | 43.44288 | -32.93541 | 37753 ft | 511 kts | 236° |
| 2026-04-22 12:15 | 43.39954 | -33.01299 | 37760 ft | 511 kts | 236° |
| 2026-04-22 12:16 | 43.35616 | -33.09042 | 37766 ft | 511 kts | 236° |
| 2026-04-22 12:16 | 43.31275 | -33.16778 | 37771 ft | 510 kts | 236° |
| 2026-04-22 12:17 | 43.26931 | -33.24500 | 37775 ft | 510 kts | 236° |
| 2026-04-22 12:17 | 43.22585 | -33.32200 | 37779 ft | 510 kts | 236° |
| 2026-04-22 12:18 | 43.18234 | -33.39890 | 37787 ft | 510 kts | 236° |
| 2026-04-22 12:18 | 43.13875 | -33.47575 | 37793 ft | 510 kts | 236° |
| 2026-04-22 12:19 | 43.09544 | -33.55191 | 37798 ft | 510 kts | 236° |
| 2026-04-22 12:19 | 43.05183 | -33.62841 | 37803 ft | 510 kts | 236° |
| 2026-04-22 12:20 | 43.00818 | -33.70475 | 37807 ft | 509 kts | 236° |
| 2026-04-22 12:20 | 42.96447 | -33.78100 | 37809 ft | 509 kts | 236° |
| 2026-04-22 12:21 | 42.92077 | -33.85704 | 37813 ft | 509 kts | 236° |
| 2026-04-22 12:21 | 42.87692 | -33.93316 | 37817 ft | 509 kts | 236° |
| 2026-04-22 12:22 | 42.83309 | -34.00905 | 37820 ft | 509 kts | 236° |
| 2026-04-22 12:22 | 42.78919 | -34.08485 | 37836 ft | 509 kts | 236° |
| 2026-04-22 12:23 | 42.74552 | -34.16008 | 37834 ft | 509 kts | 236° |
| 2026-04-22 12:23 | 42.70151 | -34.23568 | 37840 ft | 509 kts | 236° |
| 2026-04-22 12:24 | 42.66492 | -34.29841 | 37841 ft | 509 kts | 237° |
| 2026-04-22 12:24 | 42.62083 | -34.37382 | 37845 ft | 509 kts | 237° |
| 2026-04-22 12:25 | 42.57663 | -34.44923 | 37851 ft | 510 kts | 237° |
| 2026-04-22 12:25 | 42.53243 | -34.52444 | 37853 ft | 510 kts | 237° |
| 2026-04-22 12:26 | 42.48837 | -34.59922 | 37858 ft | 510 kts | 237° |
| 2026-04-22 12:26 | 42.44391 | -34.67448 | 37863 ft | 510 kts | 237° |
| 2026-04-22 12:27 | 42.39954 | -34.74939 | 37868 ft | 510 kts | 237° |
| 2026-04-22 12:27 | 42.35538 | -34.82377 | 37869 ft | 510 kts | 237° |
| 2026-04-22 12:28 | 42.31095 | -34.89843 | 37873 ft | 509 kts | 237° |
| 2026-04-22 12:28 | 42.26647 | -34.97298 | 37877 ft | 509 kts | 237° |
| 2026-04-22 12:29 | 42.22196 | -35.04740 | 37880 ft | 509 kts | 237° |
| 2026-04-22 12:29 | 42.17742 | -35.12168 | 37886 ft | 509 kts | 237° |
| 2026-04-22 12:30 | 42.11085 | -35.23235 | 37886 ft | 508 kts | 237° |
| 2026-04-22 12:31 | 42.06622 | -35.30633 | 37892 ft | 508 kts | 237° |
| 2026-04-22 12:31 | 42.02158 | -35.38014 | 37892 ft | 508 kts | 237° |
| 2026-04-22 12:32 | 41.97688 | -35.45385 | 37901 ft | 508 kts | 237° |
| 2026-04-22 12:32 | 41.90981 | -35.56414 | 37917 ft | 507 kts | 237° |
| 2026-04-22 12:33 | 41.86513 | -35.63738 | 37907 ft | 507 kts | 237° |
| 2026-04-22 12:33 | 41.82057 | -35.71025 | 37910 ft | 507 kts | 237° |
| 2026-04-22 12:34 | 41.77580 | -35.78328 | 37910 ft | 507 kts | 237° |
| 2026-04-22 12:34 | 41.73121 | -35.85585 | 37913 ft | 506 kts | 237° |
| 2026-04-22 12:35 | 41.68642 | -35.92857 | 37919 ft | 506 kts | 237° |
| 2026-04-22 12:35 | 41.64158 | -36.00119 | 37919 ft | 506 kts | 237° |
| 2026-04-22 12:36 | 41.59677 | -36.07358 | 37923 ft | 505 kts | 237° |
| 2026-04-22 12:36 | 41.55187 | -36.14594 | 37927 ft | 505 kts | 237° |
| 2026-04-22 12:37 | 41.50693 | -36.21821 | 37920 ft | 505 kts | 237° |
| 2026-04-22 12:37 | 41.46203 | -36.29022 | 37932 ft | 504 kts | 237° |
| 2026-04-22 12:38 | 41.41749 | -36.36150 | 37933 ft | 504 kts | 237° |
| 2026-04-22 12:38 | 41.37262 | -36.43313 | 37932 ft | 503 kts | 238° |
| 2026-04-22 12:39 | 41.30527 | -36.54033 | 37931 ft | 502 kts | 238° |
| 2026-04-22 12:40 | 41.26038 | -36.61158 | 37941 ft | 502 kts | 238° |
| 2026-04-22 12:40 | 41.21554 | -36.68259 | 37947 ft | 501 kts | 238° |
| 2026-04-22 12:41 | 41.17065 | -36.75350 | 37945 ft | 501 kts | 238° |
| 2026-04-22 12:41 | 41.12581 | -36.82417 | 37953 ft | 500 kts | 238° |
| 2026-04-22 12:42 | 41.08123 | -36.89426 | 37951 ft | 500 kts | 238° |
| 2026-04-22 12:42 | 41.03633 | -36.96469 | 37960 ft | 499 kts | 238° |
| 2026-04-22 12:43 | 40.99137 | -37.03505 | 37959 ft | 499 kts | 238° |
| 2026-04-22 12:43 | 40.94672 | -37.10478 | 37959 ft | 499 kts | 238° |
| 2026-04-22 12:44 | 40.90183 | -37.17471 | 37965 ft | 498 kts | 238° |
| 2026-04-22 12:44 | 40.85685 | -37.24462 | 37970 ft | 498 kts | 238° |
| 2026-04-22 12:45 | 40.81202 | -37.31413 | 37968 ft | 498 kts | 238° |
| 2026-04-22 12:45 | 40.76716 | -37.38354 | 37983 ft | 498 kts | 238° |
| 2026-04-22 12:46 | 40.72215 | -37.45301 | 37973 ft | 498 kts | 238° |
| 2026-04-22 12:46 | 40.67727 | -37.52214 | 37974 ft | 497 kts | 238° |
| 2026-04-22 12:47 | 40.63210 | -37.59155 | 37995 ft | 497 kts | 238° |
| 2026-04-22 12:47 | 40.58713 | -37.66050 | 37989 ft | 497 kts | 238° |
| 2026-04-22 12:48 | 40.54204 | -37.72948 | 37990 ft | 497 kts | 238° |
| 2026-04-22 12:48 | 40.49691 | -37.79837 | 37993 ft | 496 kts | 238° |
| 2026-04-22 12:49 | 40.45194 | -37.86685 | 38001 ft | 496 kts | 238° |
| 2026-04-22 12:49 | 40.40682 | -37.93541 | 38006 ft | 496 kts | 238° |
| 2026-04-22 12:50 | 40.36178 | -38.00369 | 38006 ft | 495 kts | 238° |
| 2026-04-22 12:50 | 40.31684 | -38.07168 | 38006 ft | 495 kts | 238° |
| 2026-04-22 12:51 | 40.27150 | -38.14011 | 38011 ft | 495 kts | 238° |
| 2026-04-22 12:51 | 40.22653 | -38.20784 | 38011 ft | 495 kts | 238° |
| 2026-04-22 12:52 | 40.18126 | -38.27586 | 38017 ft | 494 kts | 238° |
| 2026-04-22 12:52 | 40.13613 | -38.34353 | 38024 ft | 494 kts | 238° |
| 2026-04-22 12:53 | 40.09081 | -38.41133 | 38022 ft | 494 kts | 237° |
| 2026-04-22 12:53 | 40.04577 | -38.47857 | 38025 ft | 493 kts | 237° |
| 2026-04-22 12:54 | 40.00059 | -38.54586 | 38032 ft | 493 kts | 237° |
| 2026-04-22 12:54 | 39.95544 | -38.61296 | 38032 ft | 493 kts | 237° |
| 2026-04-22 12:55 | 39.91018 | -38.68009 | 38032 ft | 493 kts | 237° |
| 2026-04-22 12:55 | 39.86520 | -38.74664 | 38041 ft | 492 kts | 237° |
| 2026-04-22 12:56 | 39.81974 | -38.81379 | 38048 ft | 492 kts | 237° |
| 2026-04-22 12:56 | 39.77460 | -38.88029 | 38043 ft | 492 kts | 237° |
| 2026-04-22 12:57 | 39.72935 | -38.94682 | 38044 ft | 491 kts | 237° |
| 2026-04-22 12:57 | 39.68406 | -39.01326 | 38045 ft | 491 kts | 237° |
| 2026-04-22 12:58 | 39.63858 | -39.07986 | 38043 ft | 491 kts | 236° |
| 2026-04-22 12:58 | 39.59347 | -39.14576 | 38045 ft | 491 kts | 236° |
| 2026-04-22 12:59 | 39.54811 | -39.21187 | 38047 ft | 491 kts | 236° |
| 2026-04-22 12:59 | 39.50284 | -39.27773 | 38050 ft | 490 kts | 236° |
| 2026-04-22 13:00 | 39.45739 | -39.34368 | 38050 ft | 490 kts | 236° |
| 2026-04-22 13:00 | 39.41207 | -39.40932 | 38056 ft | 490 kts | 236° |
| 2026-04-22 13:01 | 39.36653 | -39.47516 | 38055 ft | 489 kts | 236° |
| 2026-04-22 13:01 | 39.32141 | -39.54024 | 38057 ft | 489 kts | 236° |
| 2026-04-22 13:02 | 39.27578 | -39.60592 | 38056 ft | 489 kts | 236° |
| 2026-04-22 13:02 | 39.23036 | -39.67115 | 38061 ft | 488 kts | 236° |
| 2026-04-22 13:03 | 39.18520 | -39.73587 | 38054 ft | 487 kts | 236° |
| 2026-04-22 13:03 | 39.13977 | -39.80085 | 38057 ft | 487 kts | 236° |
| 2026-04-22 13:04 | 39.09436 | -39.86567 | 38055 ft | 486 kts | 236° |
| 2026-04-22 13:04 | 39.04933 | -39.92981 | 38053 ft | 486 kts | 236° |
| 2026-04-22 13:05 | 39.00394 | -39.99433 | 38058 ft | 485 kts | 236° |
| 2026-04-22 13:05 | 38.95805 | -40.05800 | 38056 ft | 486 kts | 234° |
| 2026-04-22 13:06 | 38.91121 | -40.12069 | 38059 ft | 486 kts | 233° |
| 2026-04-22 13:06 | 38.86463 | -40.18294 | 38059 ft | 485 kts | 233° |
| 2026-04-22 13:07 | 38.81791 | -40.24565 | 38056 ft | 484 kts | 233° |
| 2026-04-22 13:07 | 38.77134 | -40.30819 | 38055 ft | 484 kts | 233° |
| 2026-04-22 13:08 | 38.72477 | -40.37064 | 38057 ft | 484 kts | 233° |
| 2026-04-22 13:08 | 38.67851 | -40.43253 | 38050 ft | 483 kts | 233° |
| 2026-04-22 13:09 | 38.63188 | -40.49478 | 38052 ft | 483 kts | 233° |
| 2026-04-22 13:09 | 38.58557 | -40.55646 | 38053 ft | 482 kts | 233° |
| 2026-04-22 13:10 | 38.53906 | -40.61831 | 38053 ft | 482 kts | 233° |
| 2026-04-22 13:10 | 38.49265 | -40.67989 | 38051 ft | 481 kts | 233° |
| 2026-04-22 13:11 | 38.44632 | -40.74125 | 38053 ft | 481 kts | 233° |
| 2026-04-22 13:11 | 38.39981 | -40.80272 | 38053 ft | 480 kts | 233° |
| 2026-04-22 13:12 | 38.35345 | -40.86387 | 38057 ft | 480 kts | 233° |
| 2026-04-22 13:12 | 38.30727 | -40.92468 | 38053 ft | 480 kts | 232° |
| 2026-04-22 13:13 | 38.26080 | -40.98573 | 38053 ft | 480 kts | 232° |
| 2026-04-22 13:13 | 38.21484 | -41.04600 | 38052 ft | 479 kts | 232° |
| 2026-04-22 13:14 | 38.17560 | -41.09737 | 38053 ft | 479 kts | 232° |
| 2026-04-22 13:14 | 38.12140 | -41.16819 | 38048 ft | 479 kts | 232° |
| 2026-04-22 13:15 | 38.07515 | -41.22847 | 38048 ft | 478 kts | 232° |
| 2026-04-22 13:15 | 38.03672 | -41.27849 | 38048 ft | 478 kts | 232° |
| 2026-04-22 13:16 | 37.98994 | -41.33926 | 38051 ft | 478 kts | 232° |
| 2026-04-22 13:16 | 37.94342 | -41.39958 | 38048 ft | 477 kts | 232° |
| 2026-04-22 13:17 | 37.89720 | -41.45938 | 38048 ft | 477 kts | 231° |
| 2026-04-22 13:17 | 37.85080 | -41.51932 | 38045 ft | 477 kts | 231° |
| 2026-04-22 13:18 | 37.80431 | -41.57927 | 38039 ft | 476 kts | 231° |
| 2026-04-22 13:18 | 37.75775 | -41.63917 | 38038 ft | 476 kts | 231° |
| 2026-04-22 13:19 | 37.71162 | -41.69841 | 38039 ft | 476 kts | 231° |
| 2026-04-22 13:19 | 37.66499 | -41.75819 | 38039 ft | 475 kts | 231° |
| 2026-04-22 13:20 | 37.61865 | -41.81747 | 38050 ft | 475 kts | 231° |
| 2026-04-22 13:20 | 37.57243 | -41.87649 | 38051 ft | 475 kts | 231° |
| 2026-04-22 13:21 | 37.52603 | -41.93564 | 38050 ft | 475 kts | 231° |
| 2026-04-22 13:21 | 37.47945 | -41.99489 | 38049 ft | 474 kts | 231° |
| 2026-04-22 13:22 | 37.43303 | -42.05383 | 38049 ft | 474 kts | 230° |
| 2026-04-22 13:22 | 37.38667 | -42.11259 | 38054 ft | 474 kts | 230° |
| 2026-04-22 13:23 | 37.34022 | -42.17135 | 38056 ft | 474 kts | 230° |
| 2026-04-22 13:23 | 37.29365 | -42.23016 | 38058 ft | 474 kts | 230° |
| 2026-04-22 13:24 | 37.24708 | -42.28885 | 38055 ft | 474 kts | 230° |
| 2026-04-22 13:24 | 37.20050 | -42.34745 | 38058 ft | 474 kts | 230° |
| 2026-04-22 13:25 | 37.15393 | -42.40594 | 38058 ft | 474 kts | 230° |
| 2026-04-22 13:25 | 37.10760 | -42.46401 | 38064 ft | 474 kts | 230° |
| 2026-04-22 13:26 | 37.06095 | -42.52238 | 38062 ft | 473 kts | 230° |
| 2026-04-22 13:26 | 37.01429 | -42.58065 | 38064 ft | 473 kts | 230° |
| 2026-04-22 13:27 | 36.96764 | -42.63880 | 38065 ft | 473 kts | 230° |
| 2026-04-22 13:27 | 36.92126 | -42.69650 | 38067 ft | 473 kts | 230° |
| 2026-04-22 13:28 | 36.87462 | -42.75442 | 38067 ft | 473 kts | 230° |
| 2026-04-22 13:28 | 36.82795 | -42.81228 | 38067 ft | 472 kts | 230° |
| 2026-04-22 13:29 | 36.78131 | -42.86999 | 38066 ft | 472 kts | 229° |
| 2026-04-22 13:29 | 36.73460 | -42.92769 | 38065 ft | 472 kts | 229° |
| 2026-04-22 13:30 | 36.68800 | -42.98515 | 38066 ft | 471 kts | 229° |
| 2026-04-22 13:30 | 36.64134 | -43.04257 | 38069 ft | 471 kts | 229° |
| 2026-04-22 13:31 | 36.59501 | -43.09949 | 38067 ft | 470 kts | 229° |
| 2026-04-22 13:31 | 36.54844 | -43.15660 | 38070 ft | 470 kts | 229° |
| 2026-04-22 13:32 | 36.50182 | -43.21366 | 38076 ft | 470 kts | 229° |
| 2026-04-22 13:32 | 36.45523 | -43.27059 | 38072 ft | 469 kts | 229° |
| 2026-04-22 13:33 | 36.40864 | -43.32743 | 38071 ft | 469 kts | 229° |
| 2026-04-22 13:33 | 36.36204 | -43.38417 | 38069 ft | 468 kts | 229° |
| 2026-04-22 13:34 | 36.31549 | -43.44075 | 38069 ft | 468 kts | 229° |
| 2026-04-22 13:34 | 36.26915 | -43.49697 | 38073 ft | 468 kts | 229° |
| 2026-04-22 13:35 | 36.22262 | -43.55333 | 38065 ft | 467 kts | 229° |
| 2026-04-22 13:35 | 36.17611 | -43.60957 | 38068 ft | 467 kts | 229° |
| 2026-04-22 13:36 | 36.12959 | -43.66571 | 38067 ft | 467 kts | 229° |
| 2026-04-22 13:36 | 36.08308 | -43.72175 | 38068 ft | 466 kts | 229° |
| 2026-04-22 13:37 | 36.03684 | -43.77737 | 38071 ft | 466 kts | 229° |
| 2026-04-22 13:37 | 35.99039 | -43.83313 | 38069 ft | 466 kts | 229° |
| 2026-04-22 13:38 | 35.94388 | -43.88888 | 38068 ft | 465 kts | 229° |
| 2026-04-22 13:38 | 35.87419 | -43.97223 | 38078 ft | 465 kts | 228° |
| 2026-04-22 13:39 | 35.82795 | -44.02742 | 38057 ft | 465 kts | 228° |
| 2026-04-22 13:39 | 35.78124 | -44.08307 | 38057 ft | 464 kts | 228° |
| 2026-04-22 13:40 | 35.73564 | -44.13731 | 38072 ft | 464 kts | 228° |
| 2026-04-22 13:40 | 35.68933 | -44.19230 | 38063 ft | 464 kts | 228° |
| 2026-04-22 13:41 | 35.64293 | -44.24730 | 38072 ft | 464 kts | 228° |
| 2026-04-22 13:41 | 35.59651 | -44.30222 | 38056 ft | 463 kts | 228° |
| 2026-04-22 13:42 | 35.54978 | -44.35742 | 38068 ft | 463 kts | 228° |
| 2026-04-22 13:42 | 35.50341 | -44.41211 | 38062 ft | 463 kts | 228° |
| 2026-04-22 13:43 | 35.45733 | -44.46637 | 38066 ft | 462 kts | 228° |
| 2026-04-22 13:43 | 35.41078 | -44.52107 | 38069 ft | 462 kts | 228° |
| 2026-04-22 13:44 | 35.36428 | -44.57563 | 38060 ft | 461 kts | 227° |
| 2026-04-22 13:44 | 35.31783 | -44.63006 | 38065 ft | 461 kts | 227° |
| 2026-04-22 13:45 | 35.27212 | -44.68351 | 38058 ft | 461 kts | 227° |
| 2026-04-22 13:45 | 35.22522 | -44.73826 | 38066 ft | 460 kts | 227° |
| 2026-04-22 13:46 | 35.17895 | -44.79220 | 38068 ft | 460 kts | 227° |
| 2026-04-22 13:46 | 35.13267 | -44.84605 | 38063 ft | 460 kts | 227° |
| 2026-04-22 13:47 | 35.08654 | -44.89965 | 38059 ft | 460 kts | 227° |
| 2026-04-22 13:47 | 35.04021 | -44.95338 | 38061 ft | 460 kts | 227° |
| 2026-04-22 13:48 | 34.99568 | -45.00495 | 38063 ft | 460 kts | 227° |
| 2026-04-22 13:48 | 34.94812 | -45.05746 | 38062 ft | 461 kts | 225° |
| 2026-04-22 13:49 | 34.90001 | -45.10849 | 38060 ft | 461 kts | 224° |
| 2026-04-22 13:49 | 34.85170 | -45.15989 | 38059 ft | 461 kts | 224° |
| 2026-04-22 13:50 | 34.80347 | -45.21156 | 38058 ft | 461 kts | 225° |
| 2026-04-22 13:50 | 34.75534 | -45.26321 | 38057 ft | 461 kts | 224° |
| 2026-04-22 13:51 | 34.70748 | -45.31449 | 38058 ft | 461 kts | 224° |
| 2026-04-22 13:51 | 34.65970 | -45.36558 | 38055 ft | 461 kts | 224° |
| 2026-04-22 13:52 | 34.61121 | -45.41734 | 38055 ft | 461 kts | 224° |
| 2026-04-22 13:52 | 34.56301 | -45.46872 | 38053 ft | 461 kts | 224° |
| 2026-04-22 13:53 | 34.51512 | -45.51967 | 38051 ft | 460 kts | 224° |
| 2026-04-22 13:53 | 34.46705 | -45.57073 | 38052 ft | 460 kts | 224° |
| 2026-04-22 13:54 | 34.41867 | -45.62205 | 38050 ft | 460 kts | 224° |
| 2026-04-22 13:54 | 34.37051 | -45.67305 | 38051 ft | 460 kts | 224° |
| 2026-04-22 13:55 | 34.32257 | -45.72373 | 38043 ft | 460 kts | 224° |
| 2026-04-22 13:55 | 34.27434 | -45.77464 | 38052 ft | 460 kts | 224° |
| 2026-04-22 13:56 | 34.22614 | -45.82545 | 38049 ft | 460 kts | 224° |
| 2026-04-22 13:56 | 34.17790 | -45.87620 | 38046 ft | 460 kts | 224° |
| 2026-04-22 13:57 | 34.12960 | -45.92695 | 38041 ft | 460 kts | 224° |
| 2026-04-22 13:57 | 34.08136 | -45.97756 | 38039 ft | 460 kts | 224° |
| 2026-04-22 13:58 | 34.03316 | -46.02803 | 38043 ft | 461 kts | 223° |
| 2026-04-22 13:58 | 33.98461 | -46.07879 | 38038 ft | 461 kts | 223° |
| 2026-04-22 13:59 | 33.93614 | -46.12940 | 38040 ft | 461 kts | 223° |
| 2026-04-22 13:59 | 33.88755 | -46.18004 | 38044 ft | 462 kts | 223° |
| 2026-04-22 14:00 | 33.83929 | -46.23028 | 38038 ft | 462 kts | 223° |
| 2026-04-22 14:00 | 33.79068 | -46.28078 | 38025 ft | 462 kts | 223° |
| 2026-04-22 14:01 | 33.74197 | -46.33132 | 38044 ft | 462 kts | 223° |
| 2026-04-22 14:01 | 33.69329 | -46.38175 | 38034 ft | 462 kts | 223° |
| 2026-04-22 14:02 | 33.64456 | -46.43215 | 38022 ft | 462 kts | 223° |
| 2026-04-22 14:02 | 33.59582 | -46.48248 | 38038 ft | 462 kts | 223° |
| 2026-04-22 14:03 | 33.54742 | -46.53238 | 38038 ft | 461 kts | 223° |
| 2026-04-22 14:03 | 33.49872 | -46.58252 | 38039 ft | 461 kts | 223° |
| 2026-04-22 14:04 | 33.44996 | -46.63265 | 38033 ft | 460 kts | 223° |
| 2026-04-22 14:04 | 33.40163 | -46.68225 | 38032 ft | 460 kts | 223° |
| 2026-04-22 14:05 | 33.35305 | -46.73204 | 38036 ft | 459 kts | 223° |
| 2026-04-22 14:06 | 33.28839 | -46.79819 | 38030 ft | 459 kts | 223° |
| 2026-04-22 14:06 | 33.23986 | -46.84775 | 38030 ft | 458 kts | 223° |
| 2026-04-22 14:07 | 33.18338 | -46.90534 | 38032 ft | 458 kts | 223° |
| 2026-04-22 14:07 | 33.14306 | -46.94638 | 38031 ft | 458 kts | 223° |
| 2026-04-22 14:08 | 33.09455 | -46.99569 | 38030 ft | 458 kts | 223° |
| 2026-04-22 14:08 | 33.04605 | -47.04492 | 38029 ft | 457 kts | 223° |
| 2026-04-22 14:09 | 32.99755 | -47.09408 | 38029 ft | 457 kts | 223° |
| 2026-04-22 14:09 | 32.94904 | -47.14317 | 38025 ft | 457 kts | 223° |
| 2026-04-22 14:10 | 32.90083 | -47.19188 | 38028 ft | 457 kts | 223° |
| 2026-04-22 14:10 | 32.85231 | -47.24084 | 38027 ft | 456 kts | 223° |
| 2026-04-22 14:11 | 32.80385 | -47.28966 | 38029 ft | 456 kts | 223° |
| 2026-04-22 14:11 | 32.75567 | -47.33812 | 38028 ft | 456 kts | 223° |
| 2026-04-22 14:12 | 32.70729 | -47.38673 | 38024 ft | 455 kts | 223° |
| 2026-04-22 14:12 | 32.65893 | -47.43523 | 38022 ft | 455 kts | 223° |
| 2026-04-22 14:13 | 32.61062 | -47.48363 | 38025 ft | 455 kts | 223° |
| 2026-04-22 14:13 | 32.56225 | -47.53201 | 38024 ft | 454 kts | 223° |
| 2026-04-22 14:14 | 32.51382 | -47.58038 | 38024 ft | 454 kts | 223° |
| 2026-04-22 14:14 | 32.46547 | -47.62860 | 38020 ft | 454 kts | 223° |
| 2026-04-22 14:15 | 32.41706 | -47.67680 | 38025 ft | 454 kts | 223° |
| 2026-04-22 14:15 | 32.36870 | -47.72490 | 38022 ft | 454 kts | 223° |
| 2026-04-22 14:16 | 32.32036 | -47.77289 | 38019 ft | 453 kts | 223° |
| 2026-04-22 14:16 | 32.27235 | -47.82049 | 38027 ft | 453 kts | 223° |
| 2026-04-22 14:17 | 32.22396 | -47.86840 | 38021 ft | 453 kts | 223° |
| 2026-04-22 14:17 | 32.17569 | -47.91612 | 38021 ft | 452 kts | 223° |
| 2026-04-22 14:18 | 32.12727 | -47.96392 | 38020 ft | 452 kts | 223° |
| 2026-04-22 14:18 | 32.07911 | -48.01140 | 38021 ft | 452 kts | 223° |
| 2026-04-22 14:19 | 32.03090 | -48.05885 | 38027 ft | 451 kts | 223° |
| 2026-04-22 14:19 | 31.98276 | -48.10618 | 38022 ft | 451 kts | 223° |
| 2026-04-22 14:20 | 31.91072 | -48.17687 | 38020 ft | 450 kts | 223° |
| 2026-04-22 14:20 | 31.86259 | -48.22402 | 38019 ft | 450 kts | 223° |
| 2026-04-22 14:21 | 31.79040 | -48.29461 | 38024 ft | 450 kts | 223° |
| 2026-04-22 14:22 | 31.71820 | -48.36506 | 38024 ft | 450 kts | 223° |
| 2026-04-22 14:23 | 31.64590 | -48.43546 | 38021 ft | 450 kts | 223° |
| 2026-04-22 14:23 | 31.59806 | -48.48197 | 38022 ft | 449 kts | 223° |
| 2026-04-22 14:24 | 31.54977 | -48.52884 | 38024 ft | 449 kts | 223° |
| 2026-04-22 14:24 | 31.50163 | -48.57551 | 38027 ft | 449 kts | 223° |
| 2026-04-22 14:25 | 31.45357 | -48.62203 | 38025 ft | 449 kts | 223° |
| 2026-04-22 14:25 | 31.40527 | -48.66873 | 38022 ft | 448 kts | 224° |
| 2026-04-22 14:26 | 31.35723 | -48.71510 | 38022 ft | 448 kts | 224° |
| 2026-04-22 14:26 | 31.30916 | -48.76144 | 38021 ft | 448 kts | 224° |
| 2026-04-22 14:27 | 31.26110 | -48.80771 | 38024 ft | 448 kts | 224° |
| 2026-04-22 14:27 | 31.21303 | -48.85392 | 38025 ft | 448 kts | 224° |
| 2026-04-22 14:28 | 31.16491 | -48.90012 | 38025 ft | 447 kts | 224° |
| 2026-04-22 14:28 | 31.11706 | -48.94600 | 38028 ft | 447 kts | 224° |
| 2026-04-22 14:29 | 31.06875 | -48.99225 | 38026 ft | 447 kts | 224° |
| 2026-04-22 14:29 | 31.02090 | -49.03802 | 38023 ft | 447 kts | 224° |
| 2026-04-22 14:30 | 30.97292 | -49.08383 | 38026 ft | 446 kts | 224° |
| 2026-04-22 14:30 | 30.92470 | -49.12981 | 38022 ft | 446 kts | 224° |
| 2026-04-22 14:31 | 30.87674 | -49.17549 | 38024 ft | 446 kts | 224° |
| 2026-04-22 14:31 | 30.82902 | -49.22088 | 38024 ft | 446 kts | 224° |
| 2026-04-22 14:32 | 30.78068 | -49.26680 | 38023 ft | 445 kts | 224° |
| 2026-04-22 14:32 | 30.73281 | -49.31220 | 38020 ft | 445 kts | 224° |
| 2026-04-22 14:33 | 30.68476 | -49.35772 | 38023 ft | 445 kts | 224° |
| 2026-04-22 14:33 | 30.63678 | -49.40311 | 38022 ft | 444 kts | 224° |
| 2026-04-22 14:34 | 30.58886 | -49.44839 | 38022 ft | 444 kts | 224° |
| 2026-04-22 14:34 | 30.54103 | -49.49352 | 38022 ft | 443 kts | 224° |
| 2026-04-22 14:35 | 30.49351 | -49.53831 | 38022 ft | 443 kts | 224° |
| 2026-04-22 14:35 | 30.44552 | -49.58347 | 38022 ft | 443 kts | 224° |
| 2026-04-22 14:36 | 30.39772 | -49.62839 | 38025 ft | 443 kts | 224° |
| 2026-04-22 14:36 | 30.34981 | -49.67336 | 38021 ft | 443 kts | 224° |
| 2026-04-22 14:37 | 30.30197 | -49.71821 | 38030 ft | 443 kts | 224° |
| 2026-04-22 14:37 | 30.25397 | -49.76315 | 38026 ft | 443 kts | 224° |
| 2026-04-22 14:38 | 30.20634 | -49.80769 | 38027 ft | 442 kts | 224° |
| 2026-04-22 14:38 | 30.15849 | -49.85236 | 38025 ft | 442 kts | 224° |
| 2026-04-22 14:39 | 30.11034 | -49.89727 | 38024 ft | 442 kts | 224° |
| 2026-04-22 14:39 | 30.06262 | -49.94171 | 38026 ft | 442 kts | 224° |
| 2026-04-22 14:40 | 29.99095 | -50.00843 | 38027 ft | 442 kts | 225° |
| 2026-04-22 14:40 | 29.94542 | -50.05558 | 38025 ft | 439 kts | 229° |
| 2026-04-22 14:41 | 29.90132 | -50.10409 | 38026 ft | 438 kts | 229° |
| 2026-04-22 14:41 | 29.85670 | -50.15252 | 38022 ft | 439 kts | 228° |
| 2026-04-22 14:42 | 29.81214 | -50.20008 | 38027 ft | 439 kts | 228° |
| 2026-04-22 14:42 | 29.76715 | -50.24778 | 38026 ft | 439 kts | 228° |
| 2026-04-22 14:43 | 29.72227 | -50.29529 | 38028 ft | 439 kts | 228° |
| 2026-04-22 14:43 | 29.67726 | -50.34292 | 38029 ft | 439 kts | 228° |
| 2026-04-22 14:44 | 29.63216 | -50.39060 | 38029 ft | 439 kts | 228° |
| 2026-04-22 14:44 | 29.58736 | -50.43791 | 38027 ft | 440 kts | 228° |
| 2026-04-22 14:45 | 29.54228 | -50.48545 | 38029 ft | 440 kts | 228° |
| 2026-04-22 14:45 | 29.49708 | -50.53306 | 38027 ft | 440 kts | 228° |
| 2026-04-22 14:46 | 29.45208 | -50.58039 | 38027 ft | 440 kts | 228° |
| 2026-04-22 14:46 | 29.40704 | -50.62772 | 38027 ft | 440 kts | 228° |
| 2026-04-22 14:47 | 29.36183 | -50.67516 | 38027 ft | 440 kts | 228° |
| 2026-04-22 14:47 | 29.31650 | -50.72267 | 38028 ft | 440 kts | 228° |
| 2026-04-22 14:48 | 29.27139 | -50.76988 | 38028 ft | 440 kts | 228° |
| 2026-04-22 14:48 | 29.22625 | -50.81707 | 38028 ft | 440 kts | 228° |
| 2026-04-22 14:49 | 29.18115 | -50.86415 | 38029 ft | 440 kts | 228° |
| 2026-04-22 14:49 | 29.13590 | -50.91132 | 38035 ft | 440 kts | 228° |
| 2026-04-22 14:50 | 29.09048 | -50.95862 | 38031 ft | 440 kts | 228° |
| 2026-04-22 14:50 | 29.04523 | -51.00567 | 38022 ft | 440 kts | 228° |
| 2026-04-22 14:51 | 29.00003 | -51.05262 | 38022 ft | 440 kts | 228° |
| 2026-04-22 14:51 | 28.95473 | -51.09962 | 38021 ft | 440 kts | 228° |
| 2026-04-22 14:52 | 28.90958 | -51.14640 | 38026 ft | 440 kts | 228° |
| 2026-04-22 14:52 | 28.86404 | -51.19353 | 38029 ft | 440 kts | 228° |
| 2026-04-22 14:53 | 28.81892 | -51.24017 | 38034 ft | 440 kts | 228° |
| 2026-04-22 14:53 | 28.77370 | -51.28685 | 38035 ft | 439 kts | 228° |
| 2026-04-22 14:54 | 28.73585 | -51.32588 | 38029 ft | 439 kts | 228° |
| 2026-04-22 14:54 | 28.69047 | -51.37263 | 38034 ft | 439 kts | 227° |
| 2026-04-22 14:55 | 28.64516 | -51.41924 | 38033 ft | 439 kts | 227° |
| 2026-04-22 14:55 | 28.59994 | -51.46570 | 38032 ft | 439 kts | 227° |
| 2026-04-22 14:56 | 28.55442 | -51.51242 | 38032 ft | 439 kts | 227° |
| 2026-04-22 14:56 | 28.50931 | -51.55866 | 38028 ft | 439 kts | 227° |
| 2026-04-22 14:57 | 28.46383 | -51.60523 | 38032 ft | 439 kts | 227° |
| 2026-04-22 14:57 | 28.41824 | -51.65185 | 38031 ft | 440 kts | 227° |
| 2026-04-22 14:58 | 28.37277 | -51.69830 | 38033 ft | 440 kts | 227° |
| 2026-04-22 14:58 | 28.32726 | -51.74472 | 38035 ft | 440 kts | 227° |
| 2026-04-22 14:59 | 28.28187 | -51.79097 | 38035 ft | 440 kts | 227° |
| 2026-04-22 14:59 | 28.23634 | -51.83730 | 38033 ft | 440 kts | 227° |
| 2026-04-22 15:00 | 28.19078 | -51.88362 | 38034 ft | 441 kts | 227° |
| 2026-04-22 15:00 | 28.14513 | -51.92996 | 38036 ft | 441 kts | 227° |
| 2026-04-22 15:01 | 28.09950 | -51.97623 | 38036 ft | 441 kts | 227° |
| 2026-04-22 15:01 | 28.05379 | -52.02253 | 38034 ft | 441 kts | 227° |
| 2026-04-22 15:02 | 28.00804 | -52.06881 | 38036 ft | 441 kts | 227° |
| 2026-04-22 15:02 | 27.96230 | -52.11503 | 38036 ft | 440 kts | 227° |
| 2026-04-22 15:03 | 27.91660 | -52.16115 | 38037 ft | 440 kts | 227° |
| 2026-04-22 15:03 | 27.87083 | -52.20729 | 38031 ft | 440 kts | 227° |
| 2026-04-22 15:04 | 27.82539 | -52.25303 | 38036 ft | 440 kts | 227° |
| 2026-04-22 15:04 | 27.77968 | -52.29901 | 38037 ft | 440 kts | 227° |
| 2026-04-22 15:05 | 27.73390 | -52.34499 | 38038 ft | 440 kts | 227° |
| 2026-04-22 15:05 | 27.68812 | -52.39093 | 38036 ft | 440 kts | 227° |
| 2026-04-22 15:06 | 27.64232 | -52.43682 | 38039 ft | 440 kts | 227° |
| 2026-04-22 15:06 | 27.59682 | -52.48237 | 38040 ft | 440 kts | 227° |
| 2026-04-22 15:07 | 27.55107 | -52.52811 | 38046 ft | 440 kts | 227° |
| 2026-04-22 15:07 | 27.50520 | -52.57392 | 38036 ft | 440 kts | 227° |
| 2026-04-22 15:08 | 27.45934 | -52.61967 | 38041 ft | 440 kts | 227° |
| 2026-04-22 15:08 | 27.41345 | -52.66539 | 38052 ft | 440 kts | 227° |
| 2026-04-22 15:09 | 27.36787 | -52.71075 | 38044 ft | 440 kts | 227° |
| 2026-04-22 15:09 | 27.32198 | -52.75637 | 38028 ft | 440 kts | 227° |
| 2026-04-22 15:10 | 27.27601 | -52.80201 | 38038 ft | 440 kts | 227° |
| 2026-04-22 15:10 | 27.23012 | -52.84753 | 38035 ft | 440 kts | 227° |
| 2026-04-22 15:11 | 27.18421 | -52.89301 | 38038 ft | 440 kts | 227° |
| 2026-04-22 15:11 | 27.13844 | -52.93830 | 38043 ft | 440 kts | 227° |
| 2026-04-22 15:12 | 27.09252 | -52.98369 | 38044 ft | 440 kts | 227° |
| 2026-04-22 15:12 | 27.04656 | -53.02906 | 38041 ft | 440 kts | 227° |
| 2026-04-22 15:13 | 27.00053 | -53.07446 | 38041 ft | 440 kts | 227° |
| 2026-04-22 15:13 | 26.95490 | -53.11940 | 38041 ft | 439 kts | 227° |
| 2026-04-22 15:14 | 26.90893 | -53.16463 | 38040 ft | 439 kts | 227° |
| 2026-04-22 15:14 | 26.86296 | -53.20981 | 38043 ft | 439 kts | 227° |
| 2026-04-22 15:15 | 26.81699 | -53.25494 | 38043 ft | 439 kts | 227° |
| 2026-04-22 15:15 | 26.77097 | -53.30008 | 38042 ft | 439 kts | 227° |
| 2026-04-22 15:16 | 26.72527 | -53.34484 | 38044 ft | 439 kts | 227° |
| 2026-04-22 15:16 | 26.67926 | -53.38985 | 38043 ft | 439 kts | 227° |
| 2026-04-22 15:17 | 26.63322 | -53.43485 | 38043 ft | 438 kts | 227° |
| 2026-04-22 15:17 | 26.58724 | -53.47974 | 38045 ft | 438 kts | 227° |
| 2026-04-22 15:18 | 26.54164 | -53.52421 | 38041 ft | 438 kts | 227° |
| 2026-04-22 15:18 | 26.49569 | -53.56897 | 38044 ft | 438 kts | 227° |
| 2026-04-22 15:19 | 26.44975 | -53.61367 | 38044 ft | 438 kts | 227° |
| 2026-04-22 15:19 | 26.40372 | -53.65841 | 38044 ft | 438 kts | 227° |
| 2026-04-22 15:20 | 26.35770 | -53.70310 | 38048 ft | 438 kts | 227° |
| 2026-04-22 15:20 | 26.31170 | -53.74771 | 38046 ft | 438 kts | 227° |
| 2026-04-22 15:21 | 26.26603 | -53.79195 | 38045 ft | 438 kts | 227° |
| 2026-04-22 15:21 | 26.21999 | -53.83650 | 38046 ft | 438 kts | 227° |
| 2026-04-22 15:22 | 26.17393 | -53.88103 | 38048 ft | 438 kts | 227° |
| 2026-04-22 15:22 | 26.12789 | -53.92548 | 38046 ft | 437 kts | 227° |
| 2026-04-22 15:23 | 26.08217 | -53.96958 | 38045 ft | 437 kts | 227° |
| 2026-04-22 15:23 | 26.03610 | -54.01397 | 38044 ft | 437 kts | 227° |
| 2026-04-22 15:24 | 25.99011 | -54.05824 | 38040 ft | 437 kts | 227° |
| 2026-04-22 15:24 | 25.94411 | -54.10246 | 38047 ft | 437 kts | 227° |
| 2026-04-22 15:25 | 25.89807 | -54.14668 | 38051 ft | 437 kts | 227° |
| 2026-04-22 15:25 | 25.85208 | -54.19080 | 38048 ft | 437 kts | 227° |
| 2026-04-22 15:26 | 25.80608 | -54.23489 | 38049 ft | 437 kts | 227° |
| 2026-04-22 15:26 | 25.76041 | -54.27861 | 38049 ft | 436 kts | 227° |
| 2026-04-22 15:27 | 25.71441 | -54.32260 | 38048 ft | 436 kts | 227° |
| 2026-04-22 15:27 | 25.66840 | -54.36655 | 38053 ft | 436 kts | 227° |
| 2026-04-22 15:28 | 25.62237 | -54.41048 | 38045 ft | 436 kts | 227° |
| 2026-04-22 15:28 | 25.57639 | -54.45432 | 38058 ft | 436 kts | 227° |
| 2026-04-22 15:29 | 25.53073 | -54.49780 | 38047 ft | 435 kts | 227° |
| 2026-04-22 15:30 | 25.46927 | -54.55626 | 38040 ft | 435 kts | 227° |
| 2026-04-22 15:30 | 25.41589 | -54.60696 | 38099 ft | 434 kts | 227° |
| 2026-04-22 15:30 | 25.39295 | -54.62873 | 38256 ft | 435 kts | 227° |
| 2026-04-22 15:31 | 25.36996 | -54.65053 | 38407 ft | 434 kts | 227° |
| 2026-04-22 15:31 | 25.34704 | -54.67226 | 38583 ft | 434 kts | 227° |
| 2026-04-22 15:31 | 25.32442 | -54.69369 | 38727 ft | 433 kts | 227° |
| 2026-04-22 15:31 | 25.30123 | -54.71564 | 38857 ft | 433 kts | 227° |
| 2026-04-22 15:32 | 25.27865 | -54.73702 | 38987 ft | 433 kts | 227° |
| 2026-04-22 15:32 | 25.25550 | -54.75891 | 39121 ft | 433 kts | 227° |
| 2026-04-22 15:32 | 25.23293 | -54.78026 | 39253 ft | 432 kts | 227° |
| 2026-04-22 15:32 | 25.21010 | -54.80184 | 39380 ft | 432 kts | 227° |
| 2026-04-22 15:33 | 25.18722 | -54.82345 | 39528 ft | 432 kts | 227° |
| 2026-04-22 15:33 | 25.16437 | -54.84504 | 39658 ft | 432 kts | 227° |
| 2026-04-22 15:33 | 25.14151 | -54.86661 | 39799 ft | 432 kts | 227° |
| 2026-04-22 15:33 | 25.11838 | -54.88843 | 39936 ft | 432 kts | 227° |
| 2026-04-22 15:34 | 25.09579 | -54.90972 | 40027 ft | 432 kts | 227° |
| 2026-04-22 15:34 | 25.05004 | -54.95281 | 40052 ft | 432 kts | 227° |
| 2026-04-22 15:35 | 25.01197 | -54.98857 | 40051 ft | 433 kts | 226° |
| 2026-04-22 15:35 | 24.95467 | -55.03459 | 40048 ft | 437 kts | 222° |
| 2026-04-22 15:36 | 24.90490 | -55.07241 | 40049 ft | 437 kts | 221° |
| 2026-04-22 15:36 | 24.85476 | -55.11024 | 40050 ft | 436 kts | 222° |
| 2026-04-22 15:37 | 24.80473 | -55.14804 | 40051 ft | 436 kts | 222° |
| 2026-04-22 15:37 | 24.75473 | -55.18585 | 40053 ft | 435 kts | 222° |
| 2026-04-22 15:38 | 24.70483 | -55.22358 | 40048 ft | 435 kts | 222° |
| 2026-04-22 15:38 | 24.62993 | -55.28014 | 40052 ft | 434 kts | 222° |
| 2026-04-22 15:39 | 24.58035 | -55.31752 | 40051 ft | 434 kts | 222° |
| 2026-04-22 15:39 | 24.53054 | -55.35503 | 40053 ft | 434 kts | 222° |
| 2026-04-22 15:40 | 24.48077 | -55.39248 | 40052 ft | 433 kts | 222° |
| 2026-04-22 15:40 | 24.43107 | -55.42984 | 40052 ft | 433 kts | 222° |
| 2026-04-22 15:41 | 24.38144 | -55.46711 | 40052 ft | 432 kts | 222° |
| 2026-04-22 15:41 | 24.33177 | -55.50438 | 40053 ft | 432 kts | 222° |
| 2026-04-22 15:42 | 24.28254 | -55.54129 | 40051 ft | 431 kts | 222° |
| 2026-04-22 15:42 | 24.23304 | -55.57837 | 40053 ft | 431 kts | 222° |
| 2026-04-22 15:43 | 24.19181 | -55.60922 | 40055 ft | 430 kts | 222° |
| 2026-04-22 15:43 | 24.14236 | -55.64619 | 40055 ft | 430 kts | 222° |
| 2026-04-22 15:44 | 24.09292 | -55.68312 | 40058 ft | 429 kts | 222° |
| 2026-04-22 15:44 | 24.04357 | -55.71994 | 40058 ft | 428 kts | 222° |
| 2026-04-22 15:45 | 23.99428 | -55.75669 | 40059 ft | 428 kts | 222° |
| 2026-04-22 15:45 | 23.94538 | -55.79311 | 40053 ft | 428 kts | 222° |
| 2026-04-22 15:46 | 23.89621 | -55.82970 | 40053 ft | 428 kts | 222° |
| 2026-04-22 15:46 | 23.84697 | -55.86631 | 40052 ft | 427 kts | 222° |
| 2026-04-22 15:47 | 23.79785 | -55.90278 | 40063 ft | 427 kts | 222° |
| 2026-04-22 15:47 | 23.74863 | -55.93931 | 40058 ft | 427 kts | 222° |
| 2026-04-22 15:48 | 23.69953 | -55.97571 | 40055 ft | 427 kts | 222° |
| 2026-04-22 15:48 | 23.65047 | -56.01205 | 40054 ft | 426 kts | 222° |
| 2026-04-22 15:49 | 23.60170 | -56.04813 | 40056 ft | 426 kts | 222° |
| 2026-04-22 15:49 | 23.55268 | -56.08437 | 40061 ft | 426 kts | 222° |
| 2026-04-22 15:50 | 23.50363 | -56.12060 | 40060 ft | 426 kts | 222° |
| 2026-04-22 15:50 | 23.45450 | -56.15686 | 40052 ft | 426 kts | 222° |
| 2026-04-22 15:51 | 23.40543 | -56.19304 | 40059 ft | 426 kts | 222° |
| 2026-04-22 15:51 | 23.35628 | -56.22924 | 40061 ft | 426 kts | 222° |
| 2026-04-22 15:52 | 23.30718 | -56.26537 | 40060 ft | 426 kts | 222° |
| 2026-04-22 15:52 | 23.25812 | -56.30145 | 40057 ft | 426 kts | 222° |
| 2026-04-22 15:53 | 23.20930 | -56.33731 | 40061 ft | 426 kts | 222° |
| 2026-04-22 15:53 | 23.16022 | -56.37333 | 40061 ft | 426 kts | 222° |
| 2026-04-22 15:54 | 23.11106 | -56.40938 | 40062 ft | 426 kts | 222° |
| 2026-04-22 15:54 | 23.06193 | -56.44537 | 40059 ft | 426 kts | 222° |
| 2026-04-22 15:55 | 23.01283 | -56.48131 | 40060 ft | 426 kts | 222° |
| 2026-04-22 15:55 | 22.96373 | -56.51722 | 40059 ft | 426 kts | 222° |
| 2026-04-22 15:56 | 22.91465 | -56.55308 | 40058 ft | 425 kts | 222° |
| 2026-04-22 15:56 | 22.86582 | -56.58872 | 40061 ft | 425 kts | 221° |
| 2026-04-22 15:57 | 22.81672 | -56.62453 | 40062 ft | 425 kts | 221° |
| 2026-04-22 15:57 | 22.76769 | -56.66027 | 40060 ft | 425 kts | 221° |
| 2026-04-22 15:58 | 22.71850 | -56.69608 | 40061 ft | 425 kts | 221° |
| 2026-04-22 15:58 | 22.66970 | -56.73158 | 40058 ft | 425 kts | 221° |
| 2026-04-22 15:59 | 22.62058 | -56.76728 | 40056 ft | 425 kts | 221° |
| 2026-04-22 15:59 | 22.57136 | -56.80302 | 40060 ft | 425 kts | 221° |
| 2026-04-22 16:00 | 22.52223 | -56.83867 | 40061 ft | 425 kts | 221° |
| 2026-04-22 16:00 | 22.47338 | -56.87408 | 40059 ft | 425 kts | 221° |
| 2026-04-22 16:01 | 22.42428 | -56.90964 | 40061 ft | 425 kts | 221° |
| 2026-04-22 16:01 | 22.37510 | -56.94523 | 40059 ft | 425 kts | 221° |
| 2026-04-22 16:02 | 22.32589 | -56.98081 | 40059 ft | 425 kts | 221° |
| 2026-04-22 16:02 | 22.27672 | -57.01634 | 40063 ft | 426 kts | 221° |
| 2026-04-22 16:03 | 22.22830 | -57.05128 | 40061 ft | 426 kts | 221° |
| 2026-04-22 16:03 | 22.17912 | -57.08675 | 40058 ft | 427 kts | 221° |
| 2026-04-22 16:04 | 22.12956 | -57.12246 | 40060 ft | 427 kts | 221° |
| 2026-04-22 16:04 | 22.08015 | -57.15803 | 40055 ft | 427 kts | 221° |
| 2026-04-22 16:05 | 22.03081 | -57.19352 | 40071 ft | 428 kts | 221° |
| 2026-04-22 16:05 | 21.98103 | -57.22930 | 40056 ft | 428 kts | 221° |
| 2026-04-22 16:06 | 21.93181 | -57.26464 | 40052 ft | 428 kts | 221° |
| 2026-04-22 16:06 | 21.88220 | -57.30024 | 40061 ft | 429 kts | 221° |
| 2026-04-22 16:07 | 21.83251 | -57.33586 | 40060 ft | 429 kts | 221° |
| 2026-04-22 16:07 | 21.78265 | -57.37157 | 40055 ft | 429 kts | 220° |
| 2026-04-22 16:08 | 21.73315 | -57.40700 | 40058 ft | 430 kts | 220° |
| 2026-04-22 16:08 | 21.68346 | -57.44253 | 40059 ft | 430 kts | 220° |
| 2026-04-22 16:09 | 21.63572 | -57.47664 | 40060 ft | 430 kts | 220° |
| 2026-04-22 16:09 | 21.58582 | -57.51226 | 40058 ft | 431 kts | 220° |
| 2026-04-22 16:10 | 21.53613 | -57.54770 | 40058 ft | 431 kts | 220° |
| 2026-04-22 16:10 | 21.48614 | -57.58333 | 40062 ft | 432 kts | 220° |
| 2026-04-22 16:11 | 21.43600 | -57.61904 | 40059 ft | 432 kts | 220° |
| 2026-04-22 16:11 | 21.38579 | -57.65476 | 40054 ft | 433 kts | 220° |
| 2026-04-22 16:12 | 21.33559 | -57.69044 | 40054 ft | 433 kts | 220° |
| 2026-04-22 16:12 | 21.28530 | -57.72616 | 40055 ft | 434 kts | 220° |
| 2026-04-22 16:13 | 21.23524 | -57.76169 | 40056 ft | 434 kts | 220° |
| 2026-04-22 16:13 | 21.18473 | -57.79751 | 40053 ft | 435 kts | 220° |
| 2026-04-22 16:14 | 21.13427 | -57.83326 | 40052 ft | 435 kts | 220° |
| 2026-04-22 16:14 | 21.08369 | -57.86906 | 40051 ft | 436 kts | 220° |
| 2026-04-22 16:15 | 21.03344 | -57.90461 | 40052 ft | 436 kts | 220° |
| 2026-04-22 16:15 | 20.98272 | -57.94046 | 40049 ft | 436 kts | 220° |
| 2026-04-22 16:16 | 20.93205 | -57.97624 | 40052 ft | 437 kts | 220° |
| 2026-04-22 16:16 | 20.88124 | -58.01209 | 40051 ft | 437 kts | 220° |
| 2026-04-22 16:17 | 20.83044 | -58.04790 | 40047 ft | 437 kts | 220° |
| 2026-04-22 16:17 | 20.77984 | -58.08354 | 40050 ft | 438 kts | 219° |
| 2026-04-22 16:18 | 20.72893 | -58.11938 | 40052 ft | 438 kts | 219° |
| 2026-04-22 16:18 | 20.67791 | -58.15527 | 40042 ft | 439 kts | 219° |
| 2026-04-22 16:19 | 20.62670 | -58.19125 | 40050 ft | 439 kts | 219° |
| 2026-04-22 16:19 | 20.57597 | -58.22687 | 40041 ft | 440 kts | 219° |
| 2026-04-22 16:20 | 20.52469 | -58.26285 | 40044 ft | 440 kts | 219° |
| 2026-04-22 16:20 | 20.47344 | -58.29877 | 40051 ft | 440 kts | 219° |
| 2026-04-22 16:21 | 20.42219 | -58.33466 | 40049 ft | 441 kts | 219° |
| 2026-04-22 16:21 | 20.37086 | -58.37059 | 40046 ft | 441 kts | 219° |
| 2026-04-22 16:22 | 20.29380 | -58.42447 | 40046 ft | 442 kts | 219° |
| 2026-04-22 16:23 | 20.21693 | -58.47815 | 40044 ft | 442 kts | 219° |
| 2026-04-22 16:23 | 20.16534 | -58.51414 | 40039 ft | 443 kts | 219° |
| 2026-04-22 16:24 | 20.08788 | -58.56812 | 40041 ft | 444 kts | 219° |
| 2026-04-22 16:25 | 20.03646 | -58.60392 | 40039 ft | 444 kts | 219° |
| 2026-04-22 16:25 | 19.95881 | -58.65793 | 40040 ft | 445 kts | 219° |
| 2026-04-22 16:26 | 19.90702 | -58.69392 | 40040 ft | 445 kts | 219° |
| 2026-04-22 16:26 | 19.85515 | -58.72993 | 40040 ft | 445 kts | 219° |
| 2026-04-22 16:27 | 19.80325 | -58.76593 | 40037 ft | 446 kts | 219° |
| 2026-04-22 16:27 | 19.75133 | -58.80192 | 40039 ft | 446 kts | 219° |
| 2026-04-22 16:28 | 19.69931 | -58.83795 | 40036 ft | 446 kts | 219° |
| 2026-04-22 16:28 | 19.64763 | -58.87371 | 40037 ft | 446 kts | 219° |
| 2026-04-22 16:29 | 19.59560 | -58.90969 | 40037 ft | 446 kts | 219° |
| 2026-04-22 16:29 | 19.54351 | -58.94569 | 40037 ft | 447 kts | 219° |
| 2026-04-22 16:30 | 19.49131 | -58.98172 | 40036 ft | 447 kts | 219° |
| 2026-04-22 16:30 | 19.43915 | -59.01771 | 40036 ft | 447 kts | 219° |
| 2026-04-22 16:31 | 19.38727 | -59.05347 | 40039 ft | 447 kts | 219° |
| 2026-04-22 16:31 | 19.33506 | -59.08944 | 40035 ft | 448 kts | 219° |
| 2026-04-22 16:32 | 19.29159 | -59.11936 | 40031 ft | 448 kts | 219° |
| 2026-04-22 16:32 | 19.23937 | -59.15528 | 40033 ft | 448 kts | 219° |
| 2026-04-22 16:33 | 19.18705 | -59.19124 | 40032 ft | 448 kts | 219° |
| 2026-04-22 16:33 | 19.13476 | -59.22716 | 40030 ft | 448 kts | 219° |
| 2026-04-22 16:34 | 19.08240 | -59.26309 | 40031 ft | 448 kts | 219° |
| 2026-04-22 16:34 | 19.03009 | -59.29897 | 40028 ft | 448 kts | 219° |
| 2026-04-22 16:35 | 18.97803 | -59.33464 | 40026 ft | 448 kts | 219° |
| 2026-04-22 16:35 | 18.92564 | -59.37051 | 40028 ft | 449 kts | 219° |
| 2026-04-22 16:36 | 18.87320 | -59.40639 | 40028 ft | 449 kts | 219° |
| 2026-04-22 16:36 | 18.82077 | -59.44224 | 40029 ft | 449 kts | 219° |
| 2026-04-22 16:37 | 18.76830 | -59.47808 | 40027 ft | 449 kts | 219° |
| 2026-04-22 16:37 | 18.71583 | -59.51390 | 40028 ft | 449 kts | 219° |
| 2026-04-22 16:38 | 18.66324 | -59.54977 | 40029 ft | 450 kts | 219° |
| 2026-04-22 16:38 | 18.61104 | -59.58536 | 40025 ft | 450 kts | 219° |
| 2026-04-22 16:39 | 18.55837 | -59.62123 | 40025 ft | 450 kts | 219° |
| 2026-04-22 16:39 | 18.50574 | -59.65705 | 40021 ft | 450 kts | 219° |
| 2026-04-22 16:40 | 18.45312 | -59.69284 | 40021 ft | 450 kts | 219° |
| 2026-04-22 16:41 | 18.37411 | -59.74652 | 40021 ft | 450 kts | 219° |
| 2026-04-22 16:41 | 18.32176 | -59.78207 | 40027 ft | 450 kts | 219° |
| 2026-04-22 16:42 | 18.26903 | -59.81784 | 40023 ft | 451 kts | 219° |
| 2026-04-22 16:42 | 18.21632 | -59.85357 | 40022 ft | 451 kts | 219° |
| 2026-04-22 16:43 | 18.16359 | -59.88929 | 40017 ft | 451 kts | 219° |
| 2026-04-22 16:43 | 18.11073 | -59.92506 | 40019 ft | 451 kts | 219° |
| 2026-04-22 16:44 | 18.05797 | -59.96075 | 40018 ft | 451 kts | 219° |
| 2026-04-22 16:44 | 18.00555 | -59.99680 | 40017 ft | 448 kts | 223° |
| 2026-04-22 16:45 | 17.95799 | -60.03793 | 40015 ft | 445 kts | 226° |
| 2026-04-22 16:45 | 17.91074 | -60.08018 | 40018 ft | 445 kts | 226° |
| 2026-04-22 16:46 | 17.86362 | -60.12242 | 40017 ft | 445 kts | 226° |
| 2026-04-22 16:46 | 17.81645 | -60.16471 | 40019 ft | 445 kts | 226° |
| 2026-04-22 16:47 | 17.76936 | -60.20689 | 39760 ft | 444 kts | 226° |
| 2026-04-22 16:47 | 17.74615 | -60.22768 | 39518 ft | 445 kts | 226° |
| 2026-04-22 16:47 | 17.72253 | -60.24884 | 39314 ft | 446 kts | 226° |
| 2026-04-22 16:47 | 17.69891 | -60.26998 | 39068 ft | 446 kts | 226° |
| 2026-04-22 16:48 | 17.67524 | -60.29116 | 38834 ft | 446 kts | 226° |
| 2026-04-22 16:48 | 17.65165 | -60.31226 | 38592 ft | 446 kts | 226° |
| 2026-04-22 16:48 | 17.62798 | -60.33342 | 38324 ft | 447 kts | 226° |
| 2026-04-22 16:48 | 17.60427 | -60.35462 | 38048 ft | 448 kts | 226° |
| 2026-04-22 16:49 | 17.58051 | -60.37585 | 37774 ft | 449 kts | 226° |
| 2026-04-22 16:49 | 17.55677 | -60.39705 | 37404 ft | 447 kts | 226° |
| 2026-04-22 16:49 | 17.53309 | -60.41818 | 36819 ft | 446 kts | 226° |
| 2026-04-22 16:49 | 17.50945 | -60.43928 | 36379 ft | 446 kts | 226° |
| 2026-04-22 16:50 | 17.48568 | -60.46051 | 36139 ft | 453 kts | 226° |
| 2026-04-22 16:50 | 17.46160 | -60.48201 | 36022 ft | 457 kts | 225° |
| 2026-04-22 16:50 | 17.43764 | -60.50337 | 36012 ft | 458 kts | 225° |
| 2026-04-22 16:51 | 17.38900 | -60.54669 | 36012 ft | 459 kts | 225° |
| 2026-04-22 16:51 | 17.34042 | -60.58993 | 36012 ft | 459 kts | 225° |
| 2026-04-22 16:52 | 17.29181 | -60.63318 | 36012 ft | 458 kts | 225° |
| 2026-04-22 16:52 | 17.24315 | -60.67645 | 36012 ft | 459 kts | 225° |
| 2026-04-22 16:53 | 17.18987 | -60.71426 | 36012 ft | 467 kts | 216° |
| 2026-04-22 16:53 | 17.13327 | -60.74771 | 35737 ft | 464 kts | 215° |
| 2026-04-22 16:53 | 17.10540 | -60.76419 | 34914 ft | 468 kts | 215° |
| 2026-04-22 16:54 | 17.07688 | -60.78111 | 34055 ft | 473 kts | 215° |
| 2026-04-22 16:54 | 17.04820 | -60.79814 | 33106 ft | 477 kts | 215° |
| 2026-04-22 16:54 | 17.01921 | -60.81534 | 32316 ft | 480 kts | 214° |
| 2026-04-22 16:54 | 16.99021 | -60.83253 | 31569 ft | 471 kts | 214° |
| 2026-04-22 16:55 | 16.96221 | -60.84905 | 30866 ft | 454 kts | 214° |
| 2026-04-22 16:55 | 16.93518 | -60.86502 | 30170 ft | 439 kts | 214° |
| 2026-04-22 16:55 | 16.90875 | -60.88069 | 29386 ft | 435 kts | 214° |
| 2026-04-22 16:55 | 16.88261 | -60.89619 | 28604 ft | 425 kts | 214° |
| 2026-04-22 16:56 | 16.85723 | -60.91121 | 27832 ft | 413 kts | 214° |
| 2026-04-22 16:56 | 16.83258 | -60.92580 | 27087 ft | 401 kts | 214° |
| 2026-04-22 16:56 | 16.80891 | -60.93982 | 26365 ft | 391 kts | 213° |
| 2026-04-22 16:56 | 16.78556 | -60.95364 | 25655 ft | 382 kts | 213° |
| 2026-04-22 16:57 | 16.76271 | -60.96717 | 24979 ft | 373 kts | 213° |
| 2026-04-22 16:57 | 16.74031 | -60.98043 | 24308 ft | 367 kts | 213° |
| 2026-04-22 16:57 | 16.71823 | -60.99350 | 23657 ft | 362 kts | 213° |
| 2026-04-22 16:57 | 16.69543 | -61.00404 | 22880 ft | 359 kts | 197° |
| 2026-04-22 16:58 | 16.67914 | -61.00644 | 22375 ft | 358 kts | 183° |
| 2026-04-22 16:58 | 16.64684 | -60.99926 | 21378 ft | 355 kts | 158° |
| 2026-04-22 16:58 | 16.62436 | -60.98883 | 20643 ft | 350 kts | 161° |
| 2026-04-22 16:58 | 16.60141 | -60.98260 | 19958 ft | 342 kts | 175° |
| 2026-04-22 16:59 | 16.57800 | -60.98313 | 19266 ft | 333 kts | 193° |
| 2026-04-22 16:59 | 16.55668 | -60.99140 | 18590 ft | 324 kts | 216° |
| 2026-04-22 16:59 | 16.53940 | -61.00606 | 17876 ft | 318 kts | 225° |
| 2026-04-22 16:59 | 16.52395 | -61.02148 | 17135 ft | 315 kts | 226° |
| 2026-04-22 17:00 | 16.50831 | -61.03731 | 16387 ft | 312 kts | 226° |
| 2026-04-22 17:00 | 16.47734 | -61.06843 | 14962 ft | 306 kts | 226° |
| 2026-04-22 17:00 | 16.46207 | -61.08370 | 14278 ft | 303 kts | 225° |
| 2026-04-22 17:01 | 16.44695 | -61.09880 | 13573 ft | 299 kts | 225° |
| 2026-04-22 17:01 | 16.43196 | -61.11373 | 12821 ft | 296 kts | 225° |
| 2026-04-22 17:01 | 16.41717 | -61.12847 | 12073 ft | 293 kts | 225° |
| 2026-04-22 17:01 | 16.40270 | -61.14288 | 11704 ft | 284 kts | 225° |
| 2026-04-22 17:02 | 16.38859 | -61.15693 | 11544 ft | 276 kts | 225° |
| 2026-04-22 17:02 | 16.37489 | -61.17056 | 11348 ft | 268 kts | 225° |
| 2026-04-22 17:02 | 16.36158 | -61.18381 | 11240 ft | 263 kts | 225° |
| 2026-04-22 17:02 | 16.34834 | -61.19698 | 11127 ft | 263 kts | 224° |
| 2026-04-22 17:03 | 16.33528 | -61.20997 | 10990 ft | 262 kts | 225° |
| 2026-04-22 17:03 | 16.32203 | -61.22303 | 10813 ft | 262 kts | 223° |
| 2026-04-22 17:03 | 16.30658 | -61.23342 | 10489 ft | 262 kts | 201° |
| 2026-04-22 17:03 | 16.28905 | -61.23829 | 10189 ft | 261 kts | 192° |
| 2026-04-22 17:04 | 16.27143 | -61.24172 | 9917 ft | 260 kts | 191° |
| 2026-04-22 17:04 | 16.25366 | -61.24507 | 9605 ft | 259 kts | 191° |
| 2026-04-22 17:04 | 16.23597 | -61.24847 | 9319 ft | 258 kts | 191° |
| 2026-04-22 17:04 | 16.21831 | -61.25192 | 9001 ft | 258 kts | 191° |
| 2026-04-22 17:05 | 16.20062 | -61.25451 | 8611 ft | 257 kts | 176° |
| 2026-04-22 17:05 | 16.18403 | -61.24845 | 8276 ft | 254 kts | 144° |
| 2026-04-22 17:05 | 16.17030 | -61.23740 | 8143 ft | 245 kts | 140° |
| 2026-04-22 17:05 | 16.15734 | -61.22640 | 8021 ft | 236 kts | 140° |
| 2026-04-22 17:06 | 16.14670 | -61.21392 | 7849 ft | 227 kts | 118° |
| 2026-04-22 17:06 | 16.14214 | -61.19852 | 7664 ft | 221 kts | 96° |
| 2026-04-22 17:06 | 16.14251 | -61.18271 | 7403 ft | 219 kts | 78° |
| 2026-04-22 17:06 | 16.14854 | -61.16852 | 7119 ft | 218 kts | 52° |
| 2026-04-22 17:07 | 16.16016 | -61.15868 | 6842 ft | 217 kts | 24° |
| 2026-04-22 17:07 | 16.17482 | -61.15586 | 6602 ft | 217 kts | 356° |
| 2026-04-22 17:07 | 16.18900 | -61.16083 | 6371 ft | 217 kts | 326° |
| 2026-04-22 17:07 | 16.19900 | -61.17245 | 6123 ft | 219 kts | 296° |
| 2026-04-22 17:08 | 16.20336 | -61.18758 | 5897 ft | 219 kts | 280° |
| 2026-04-22 17:08 | 16.20582 | -61.20323 | 5698 ft | 219 kts | 279° |
| 2026-04-22 17:08 | 16.20817 | -61.21893 | 5476 ft | 220 kts | 279° |
| 2026-04-22 17:08 | 16.21064 | -61.23472 | 5133 ft | 223 kts | 279° |
| 2026-04-22 17:09 | 16.21284 | -61.25084 | 4760 ft | 227 kts | 272° |
| 2026-04-22 17:09 | 16.21407 | -61.26717 | 4475 ft | 225 kts | 282° |
| 2026-04-22 17:09 | 16.21624 | -61.27756 | 4383 ft | 220 kts | 284° |
| 2026-04-22 17:09 | 16.22153 | -61.29769 | 4147 ft | 217 kts | 288° |
| 2026-04-22 17:10 | 16.22512 | -61.31314 | 4067 ft | 217 kts | 282° |
| 2026-04-22 17:10 | 16.22785 | -61.32835 | 4012 ft | 217 kts | 281° |
| 2026-04-22 17:10 | 16.23060 | -61.34370 | 3930 ft | 212 kts | 282° |
| 2026-04-22 17:10 | 16.23327 | -61.35820 | 3852 ft | 197 kts | 282° |
| 2026-04-22 17:11 | 16.23583 | -61.37191 | 3706 ft | 188 kts | 282° |
| 2026-04-22 17:11 | 16.23833 | -61.38508 | 3482 ft | 185 kts | 282° |
| 2026-04-22 17:11 | 16.24078 | -61.39837 | 3148 ft | 188 kts | 282° |
| 2026-04-22 17:11 | 16.24320 | -61.41168 | 2789 ft | 185 kts | 283° |
| 2026-04-22 17:12 | 16.24557 | -61.42460 | 2468 ft | 180 kts | 282° |
| 2026-04-22 17:12 | 16.24786 | -61.43707 | 2142 ft | 171 kts | 282° |
| 2026-04-22 17:12 | 16.25001 | -61.44886 | 1860 ft | 163 kts | 283° |
| 2026-04-22 17:12 | 16.25214 | -61.46036 | 1593 ft | 162 kts | 283° |
| 2026-04-22 17:13 | 16.25415 | -61.47200 | 1254 ft | 164 kts | 281° |
| 2026-04-22 17:13 | 16.25606 | -61.48367 | 950 ft | 162 kts | 284° |
| 2026-04-22 17:13 | 16.25836 | -61.49502 | 708 ft | 157 kts | 283° |
| 2026-04-22 17:13 | 16.26048 | -61.50603 | 444 ft | 153 kts | 281° |
| 2026-04-22 17:14 | 16.26246 | -61.51664 | 205 ft | 149 kts | 279° |
| 2026-04-22 17:14 | 16.26435 | -61.52695 | 36 ft | 142 kts | 281° |
| 2026-04-22 17:14 | 16.26605 | -61.53582 | 33 ft | 105 kts | 281° |
| 2026-04-22 17:14 | 16.26722 | -61.54198 | 20 ft | 69 kts | 281° |
| 2026-04-22 17:15 | 16.26771 | -61.54462 | 16 ft | 40 kts | 281° |
| 2026-04-22 17:15 | 16.26809 | -61.54669 | 13 ft | 9 kts | 284° |
| 2026-04-22 17:15 | 16.26842 | -61.54718 | 13 ft | 6 kts | 318° |
| 2026-04-22 17:15 | 16.26862 | -61.54752 | 15 ft | 4 kts | 269° |
| 2026-04-22 17:16 | 16.26845 | -61.54766 | 15 ft | 2 kts | 194° |
| 2026-04-22 17:16 | 16.26832 | -61.54753 | 15 ft | 3 kts | 121° |
| 2026-04-22 17:16 | 16.26817 | -61.54696 | 13 ft | 13 kts | 103° |
| 2026-04-22 17:16 | 16.26796 | -61.54581 | 14 ft | 19 kts | 101° |
| 2026-04-22 17:17 | 16.26769 | -61.54434 | 16 ft | 22 kts | 101° |
| 2026-04-22 17:17 | 16.26737 | -61.54264 | 19 ft | 26 kts | 101° |
| 2026-04-22 17:17 | 16.26700 | -61.54072 | 23 ft | 28 kts | 102° |
| 2026-04-22 17:17 | 16.26662 | -61.53869 | 27 ft | 29 kts | 101° |
| 2026-04-22 17:18 | 16.26623 | -61.53664 | 31 ft | 28 kts | 101° |
| 2026-04-22 17:18 | 16.26584 | -61.53460 | 32 ft | 30 kts | 101° |
| 2026-04-22 17:18 | 16.26546 | -61.53254 | 31 ft | 26 kts | 100° |
| 2026-04-22 17:18 | 16.26516 | -61.53097 | 32 ft | 19 kts | 101° |
| 2026-04-22 17:19 | 16.26542 | -61.52994 | 30 ft | 13 kts | 22° |
| 2026-04-22 17:19 | 16.26737 | -61.52951 | 29 ft | 16 kts | 10° |
| 2026-04-22 17:20 | 16.26851 | -61.52917 | 29 ft | 7 kts | 56° |
| 2026-04-22 17:20 | 16.26832 | -61.52773 | 29 ft | 9 kts | 101° |
| 2026-04-22 17:21 | 16.26822 | -61.52720 | 29 ft | 7 kts | 101° |
| 2026-04-22 17:21 | 16.26838 | -61.52686 | 29 ft | 4 kts | 22° |
| 2026-04-22 17:22 | 16.26883 | -61.52675 | 29 ft | 2 kts | 11° |
| 2026-04-22 17:22 | 16.26887 | -61.52674 | 29 ft | 0 kts | 11° |